<?xml version="1.0" encoding="UTF-8" standalone="no" ?>
<gpx xmlns="http://www.topografix.com/GPX/1/1" xmlns:xsi="http://www.w3.org/2001/XMLSchema-instance" xsi:schemaLocation="http://www.topografix.com/GPX/1/1 http://www.topografix.com/GPX/1/1/gpx.xsd" version="1.1" creator="VisuGPX - https://www.visugpx.com">
  <metadata>
    <name>Cardio 19 01 2018</name>
    <desc><![CDATA[Parcourt avec vent et pluie sur la fin du trajet]]></desc>
  </metadata>
  <trk>
    <name><![CDATA[Sequence 1]]></name>
    <trkseg>
      <trkpt lat="47.23123" lon="5.44675">
        <ele>217</ele>
        <time>2018-01-19T13:13:34Z</time>
      </trkpt>
      <trkpt lat="47.23121" lon="5.44675">
        <ele>209</ele>
        <time>2018-01-19T13:13:38Z</time>
      </trkpt>
      <trkpt lat="47.23122" lon="5.44675">
        <ele>206</ele>
        <time>2018-01-19T13:13:43Z</time>
      </trkpt>
      <trkpt lat="47.23122" lon="5.44675">
        <ele>204</ele>
        <time>2018-01-19T13:13:44Z</time>
      </trkpt>
      <trkpt lat="47.23123" lon="5.44676">
        <ele>205</ele>
        <time>2018-01-19T13:13:47Z</time>
      </trkpt>
      <trkpt lat="47.23122" lon="5.44675">
        <ele>203</ele>
        <time>2018-01-19T13:13:50Z</time>
      </trkpt>
      <trkpt lat="47.23122" lon="5.44675">
        <ele>203</ele>
        <time>2018-01-19T13:13:53Z</time>
      </trkpt>
      <trkpt lat="47.23122" lon="5.44675">
        <ele>203</ele>
        <time>2018-01-19T13:13:57Z</time>
      </trkpt>
      <trkpt lat="47.23122" lon="5.44675">
        <ele>203</ele>
        <time>2018-01-19T13:13:59Z</time>
      </trkpt>
      <trkpt lat="47.23122" lon="5.44675">
        <ele>203</ele>
        <time>2018-01-19T13:14:02Z</time>
      </trkpt>
      <trkpt lat="47.23122" lon="5.44675">
        <ele>203</ele>
        <time>2018-01-19T13:14:05Z</time>
      </trkpt>
      <trkpt lat="47.23123" lon="5.44674">
        <ele>201</ele>
        <time>2018-01-19T13:14:08Z</time>
      </trkpt>
      <trkpt lat="47.23124" lon="5.44673">
        <ele>203</ele>
        <time>2018-01-19T13:14:13Z</time>
      </trkpt>
      <trkpt lat="47.23116" lon="5.44669">
        <ele>206</ele>
        <time>2018-01-19T13:14:20Z</time>
      </trkpt>
      <trkpt lat="47.23112" lon="5.44667">
        <ele>202</ele>
        <time>2018-01-19T13:14:22Z</time>
      </trkpt>
      <trkpt lat="47.23101" lon="5.44656">
        <ele>201</ele>
        <time>2018-01-19T13:14:28Z</time>
      </trkpt>
      <trkpt lat="47.23096" lon="5.4465">
        <ele>202</ele>
        <time>2018-01-19T13:14:31Z</time>
      </trkpt>
      <trkpt lat="47.23086" lon="5.44641">
        <ele>198</ele>
        <time>2018-01-19T13:14:36Z</time>
      </trkpt>
      <trkpt lat="47.23076" lon="5.44627">
        <ele>196</ele>
        <time>2018-01-19T13:14:41Z</time>
      </trkpt>
      <trkpt lat="47.23062" lon="5.44612">
        <ele>195</ele>
        <time>2018-01-19T13:14:46Z</time>
      </trkpt>
      <trkpt lat="47.23052" lon="5.446">
        <ele>195</ele>
        <time>2018-01-19T13:14:51Z</time>
      </trkpt>
      <trkpt lat="47.23035" lon="5.44587">
        <ele>191</ele>
        <time>2018-01-19T13:14:59Z</time>
      </trkpt>
      <trkpt lat="47.23027" lon="5.44585">
        <ele>190</ele>
        <time>2018-01-19T13:15:01Z</time>
      </trkpt>
      <trkpt lat="47.23003" lon="5.44599">
        <ele>187</ele>
        <time>2018-01-19T13:15:09Z</time>
      </trkpt>
      <trkpt lat="47.22995" lon="5.4461">
        <ele>184</ele>
        <time>2018-01-19T13:15:12Z</time>
      </trkpt>
      <trkpt lat="47.22986" lon="5.4463">
        <ele>183</ele>
        <time>2018-01-19T13:15:17Z</time>
      </trkpt>
      <trkpt lat="47.22975" lon="5.44644">
        <ele>182</ele>
        <time>2018-01-19T13:15:21Z</time>
      </trkpt>
      <trkpt lat="47.22964" lon="5.44665">
        <ele>181</ele>
        <time>2018-01-19T13:15:26Z</time>
      </trkpt>
      <trkpt lat="47.22948" lon="5.44684">
        <ele>181</ele>
        <time>2018-01-19T13:15:31Z</time>
      </trkpt>
      <trkpt lat="47.22934" lon="5.44705">
        <ele>180</ele>
        <time>2018-01-19T13:15:37Z</time>
      </trkpt>
      <trkpt lat="47.22917" lon="5.44729">
        <ele>182</ele>
        <time>2018-01-19T13:15:44Z</time>
      </trkpt>
      <trkpt lat="47.22912" lon="5.44732">
        <ele>181</ele>
        <time>2018-01-19T13:15:46Z</time>
      </trkpt>
      <trkpt lat="47.22898" lon="5.44721">
        <ele>182</ele>
        <time>2018-01-19T13:15:51Z</time>
      </trkpt>
      <trkpt lat="47.22881" lon="5.44706">
        <ele>183</ele>
        <time>2018-01-19T13:15:56Z</time>
      </trkpt>
      <trkpt lat="47.22862" lon="5.44689">
        <ele>184</ele>
        <time>2018-01-19T13:16:02Z</time>
      </trkpt>
      <trkpt lat="47.22848" lon="5.4468">
        <ele>183</ele>
        <time>2018-01-19T13:16:06Z</time>
      </trkpt>
      <trkpt lat="47.22827" lon="5.44674">
        <ele>182</ele>
        <time>2018-01-19T13:16:11Z</time>
      </trkpt>
      <trkpt lat="47.22807" lon="5.44683">
        <ele>181</ele>
        <time>2018-01-19T13:16:16Z</time>
      </trkpt>
      <trkpt lat="47.22788" lon="5.44702">
        <ele>181</ele>
        <time>2018-01-19T13:16:21Z</time>
      </trkpt>
      <trkpt lat="47.22771" lon="5.44723">
        <ele>180</ele>
        <time>2018-01-19T13:16:26Z</time>
      </trkpt>
      <trkpt lat="47.22756" lon="5.44743">
        <ele>179</ele>
        <time>2018-01-19T13:16:31Z</time>
      </trkpt>
      <trkpt lat="47.22739" lon="5.44766">
        <ele>178</ele>
        <time>2018-01-19T13:16:36Z</time>
      </trkpt>
      <trkpt lat="47.2272" lon="5.44791">
        <ele>177</ele>
        <time>2018-01-19T13:16:41Z</time>
      </trkpt>
      <trkpt lat="47.22704" lon="5.44815">
        <ele>177</ele>
        <time>2018-01-19T13:16:46Z</time>
      </trkpt>
      <trkpt lat="47.22689" lon="5.44835">
        <ele>177</ele>
        <time>2018-01-19T13:16:51Z</time>
      </trkpt>
      <trkpt lat="47.22677" lon="5.44853">
        <ele>177</ele>
        <time>2018-01-19T13:16:56Z</time>
      </trkpt>
      <trkpt lat="47.22666" lon="5.44865">
        <ele>176</ele>
        <time>2018-01-19T13:17:01Z</time>
      </trkpt>
      <trkpt lat="47.22661" lon="5.4487">
        <ele>180</ele>
        <time>2018-01-19T13:17:06Z</time>
      </trkpt>
      <trkpt lat="47.22659" lon="5.4487">
        <ele>179</ele>
        <time>2018-01-19T13:17:11Z</time>
      </trkpt>
      <trkpt lat="47.22652" lon="5.44876">
        <ele>180</ele>
        <time>2018-01-19T13:17:16Z</time>
      </trkpt>
      <trkpt lat="47.22634" lon="5.44908">
        <ele>180</ele>
        <time>2018-01-19T13:17:25Z</time>
      </trkpt>
      <trkpt lat="47.22631" lon="5.44911">
        <ele>179</ele>
        <time>2018-01-19T13:17:26Z</time>
      </trkpt>
      <trkpt lat="47.22617" lon="5.44931">
        <ele>181</ele>
        <time>2018-01-19T13:17:31Z</time>
      </trkpt>
      <trkpt lat="47.22604" lon="5.44951">
        <ele>183</ele>
        <time>2018-01-19T13:17:36Z</time>
      </trkpt>
      <trkpt lat="47.22593" lon="5.44973">
        <ele>185</ele>
        <time>2018-01-19T13:17:41Z</time>
      </trkpt>
      <trkpt lat="47.2258" lon="5.44995">
        <ele>186</ele>
        <time>2018-01-19T13:17:46Z</time>
      </trkpt>
      <trkpt lat="47.22566" lon="5.4502">
        <ele>185</ele>
        <time>2018-01-19T13:17:52Z</time>
      </trkpt>
      <trkpt lat="47.22555" lon="5.45034">
        <ele>183</ele>
        <time>2018-01-19T13:17:56Z</time>
      </trkpt>
      <trkpt lat="47.22543" lon="5.45053">
        <ele>182</ele>
        <time>2018-01-19T13:18:01Z</time>
      </trkpt>
      <trkpt lat="47.22528" lon="5.45078">
        <ele>183</ele>
        <time>2018-01-19T13:18:08Z</time>
      </trkpt>
      <trkpt lat="47.22522" lon="5.4509">
        <ele>182</ele>
        <time>2018-01-19T13:18:11Z</time>
      </trkpt>
      <trkpt lat="47.22511" lon="5.4511">
        <ele>182</ele>
        <time>2018-01-19T13:18:16Z</time>
      </trkpt>
      <trkpt lat="47.22496" lon="5.4513">
        <ele>181</ele>
        <time>2018-01-19T13:18:21Z</time>
      </trkpt>
      <trkpt lat="47.22479" lon="5.45154">
        <ele>182</ele>
        <time>2018-01-19T13:18:28Z</time>
      </trkpt>
      <trkpt lat="47.22472" lon="5.45166">
        <ele>183</ele>
        <time>2018-01-19T13:18:31Z</time>
      </trkpt>
      <trkpt lat="47.22455" lon="5.45192">
        <ele>184</ele>
        <time>2018-01-19T13:18:38Z</time>
      </trkpt>
      <trkpt lat="47.22447" lon="5.45204">
        <ele>184</ele>
        <time>2018-01-19T13:18:41Z</time>
      </trkpt>
      <trkpt lat="47.22436" lon="5.45219">
        <ele>183</ele>
        <time>2018-01-19T13:18:46Z</time>
      </trkpt>
      <trkpt lat="47.22419" lon="5.45245">
        <ele>185</ele>
        <time>2018-01-19T13:18:55Z</time>
      </trkpt>
      <trkpt lat="47.22418" lon="5.45248">
        <ele>185</ele>
        <time>2018-01-19T13:18:56Z</time>
      </trkpt>
      <trkpt lat="47.22408" lon="5.45265">
        <ele>188</ele>
        <time>2018-01-19T13:19:01Z</time>
      </trkpt>
      <trkpt lat="47.22399" lon="5.45284">
        <ele>188</ele>
        <time>2018-01-19T13:19:06Z</time>
      </trkpt>
      <trkpt lat="47.22391" lon="5.45305">
        <ele>190</ele>
        <time>2018-01-19T13:19:11Z</time>
      </trkpt>
      <trkpt lat="47.22383" lon="5.45327">
        <ele>192</ele>
        <time>2018-01-19T13:19:16Z</time>
      </trkpt>
      <trkpt lat="47.22375" lon="5.45349">
        <ele>196</ele>
        <time>2018-01-19T13:19:21Z</time>
      </trkpt>
      <trkpt lat="47.22367" lon="5.45369">
        <ele>200</ele>
        <time>2018-01-19T13:19:26Z</time>
      </trkpt>
      <trkpt lat="47.22353" lon="5.45395">
        <ele>202</ele>
        <time>2018-01-19T13:19:33Z</time>
      </trkpt>
      <trkpt lat="47.22347" lon="5.45405">
        <ele>201</ele>
        <time>2018-01-19T13:19:36Z</time>
      </trkpt>
      <trkpt lat="47.22337" lon="5.45422">
        <ele>202</ele>
        <time>2018-01-19T13:19:41Z</time>
      </trkpt>
      <trkpt lat="47.22326" lon="5.45436">
        <ele>201</ele>
        <time>2018-01-19T13:19:46Z</time>
      </trkpt>
      <trkpt lat="47.22312" lon="5.4545">
        <ele>199</ele>
        <time>2018-01-19T13:19:51Z</time>
      </trkpt>
      <trkpt lat="47.22298" lon="5.4546">
        <ele>200</ele>
        <time>2018-01-19T13:19:56Z</time>
      </trkpt>
      <trkpt lat="47.22284" lon="5.45471">
        <ele>198</ele>
        <time>2018-01-19T13:20:01Z</time>
      </trkpt>
      <trkpt lat="47.22262" lon="5.45488">
        <ele>203</ele>
        <time>2018-01-19T13:20:09Z</time>
      </trkpt>
      <trkpt lat="47.22256" lon="5.45494">
        <ele>203</ele>
        <time>2018-01-19T13:20:11Z</time>
      </trkpt>
      <trkpt lat="47.22236" lon="5.45508">
        <ele>202</ele>
        <time>2018-01-19T13:20:17Z</time>
      </trkpt>
      <trkpt lat="47.22222" lon="5.45518">
        <ele>201</ele>
        <time>2018-01-19T13:20:21Z</time>
      </trkpt>
      <trkpt lat="47.22206" lon="5.4553">
        <ele>201</ele>
        <time>2018-01-19T13:20:26Z</time>
      </trkpt>
      <trkpt lat="47.22191" lon="5.45543">
        <ele>202</ele>
        <time>2018-01-19T13:20:31Z</time>
      </trkpt>
      <trkpt lat="47.22173" lon="5.45553">
        <ele>200</ele>
        <time>2018-01-19T13:20:36Z</time>
      </trkpt>
      <trkpt lat="47.22154" lon="5.45567">
        <ele>198</ele>
        <time>2018-01-19T13:20:41Z</time>
      </trkpt>
      <trkpt lat="47.22132" lon="5.45582">
        <ele>195</ele>
        <time>2018-01-19T13:20:46Z</time>
      </trkpt>
      <trkpt lat="47.22108" lon="5.45598">
        <ele>193</ele>
        <time>2018-01-19T13:20:51Z</time>
      </trkpt>
      <trkpt lat="47.22086" lon="5.45616">
        <ele>192</ele>
        <time>2018-01-19T13:20:56Z</time>
      </trkpt>
      <trkpt lat="47.22066" lon="5.45632">
        <ele>192</ele>
        <time>2018-01-19T13:21:01Z</time>
      </trkpt>
      <trkpt lat="47.2205" lon="5.45652">
        <ele>192</ele>
        <time>2018-01-19T13:21:06Z</time>
      </trkpt>
      <trkpt lat="47.22031" lon="5.45672">
        <ele>191</ele>
        <time>2018-01-19T13:21:11Z</time>
      </trkpt>
      <trkpt lat="47.22008" lon="5.45698">
        <ele>186</ele>
        <time>2018-01-19T13:21:17Z</time>
      </trkpt>
      <trkpt lat="47.21995" lon="5.45717">
        <ele>187</ele>
        <time>2018-01-19T13:21:21Z</time>
      </trkpt>
      <trkpt lat="47.21983" lon="5.45743">
        <ele>185</ele>
        <time>2018-01-19T13:21:26Z</time>
      </trkpt>
      <trkpt lat="47.21967" lon="5.45766">
        <ele>181</ele>
        <time>2018-01-19T13:21:31Z</time>
      </trkpt>
      <trkpt lat="47.21954" lon="5.45787">
        <ele>177</ele>
        <time>2018-01-19T13:21:36Z</time>
      </trkpt>
      <trkpt lat="47.21937" lon="5.4581">
        <ele>174</ele>
        <time>2018-01-19T13:21:41Z</time>
      </trkpt>
      <trkpt lat="47.21918" lon="5.45835">
        <ele>174</ele>
        <time>2018-01-19T13:21:46Z</time>
      </trkpt>
      <trkpt lat="47.21902" lon="5.45854">
        <ele>172</ele>
        <time>2018-01-19T13:21:51Z</time>
      </trkpt>
      <trkpt lat="47.21881" lon="5.45875">
        <ele>175</ele>
        <time>2018-01-19T13:21:56Z</time>
      </trkpt>
      <trkpt lat="47.21849" lon="5.45908">
        <ele>177</ele>
        <time>2018-01-19T13:22:04Z</time>
      </trkpt>
      <trkpt lat="47.21838" lon="5.45921">
        <ele>178</ele>
        <time>2018-01-19T13:22:07Z</time>
      </trkpt>
      <trkpt lat="47.21822" lon="5.45941">
        <ele>190</ele>
        <time>2018-01-19T13:22:12Z</time>
      </trkpt>
      <trkpt lat="47.21807" lon="5.45958">
        <ele>181</ele>
        <time>2018-01-19T13:22:17Z</time>
      </trkpt>
      <trkpt lat="47.21786" lon="5.45982">
        <ele>175</ele>
        <time>2018-01-19T13:22:23Z</time>
      </trkpt>
      <trkpt lat="47.21776" lon="5.45997">
        <ele>176</ele>
        <time>2018-01-19T13:22:26Z</time>
      </trkpt>
      <trkpt lat="47.21753" lon="5.46019">
        <ele>178</ele>
        <time>2018-01-19T13:22:31Z</time>
      </trkpt>
      <trkpt lat="47.21716" lon="5.46045">
        <ele>184</ele>
        <time>2018-01-19T13:22:40Z</time>
      </trkpt>
      <trkpt lat="47.21711" lon="5.46047">
        <ele>185</ele>
        <time>2018-01-19T13:22:41Z</time>
      </trkpt>
      <trkpt lat="47.21673" lon="5.46032">
        <ele>189</ele>
        <time>2018-01-19T13:22:49Z</time>
      </trkpt>
      <trkpt lat="47.21649" lon="5.46017">
        <ele>192</ele>
        <time>2018-01-19T13:22:54Z</time>
      </trkpt>
      <trkpt lat="47.21643" lon="5.4601">
        <ele>197</ele>
        <time>2018-01-19T13:22:56Z</time>
      </trkpt>
      <trkpt lat="47.21625" lon="5.46006">
        <ele>198</ele>
        <time>2018-01-19T13:23:01Z</time>
      </trkpt>
      <trkpt lat="47.2161" lon="5.45999">
        <ele>198</ele>
        <time>2018-01-19T13:23:06Z</time>
      </trkpt>
      <trkpt lat="47.21589" lon="5.45985">
        <ele>200</ele>
        <time>2018-01-19T13:23:12Z</time>
      </trkpt>
      <trkpt lat="47.21554" lon="5.45972">
        <ele>199</ele>
        <time>2018-01-19T13:23:20Z</time>
      </trkpt>
      <trkpt lat="47.2155" lon="5.45969">
        <ele>199</ele>
        <time>2018-01-19T13:23:21Z</time>
      </trkpt>
      <trkpt lat="47.21507" lon="5.45939">
        <ele>194</ele>
        <time>2018-01-19T13:23:29Z</time>
      </trkpt>
      <trkpt lat="47.21493" lon="5.45929">
        <ele>195</ele>
        <time>2018-01-19T13:23:32Z</time>
      </trkpt>
      <trkpt lat="47.21458" lon="5.45905">
        <ele>198</ele>
        <time>2018-01-19T13:23:40Z</time>
      </trkpt>
      <trkpt lat="47.21453" lon="5.45901">
        <ele>198</ele>
        <time>2018-01-19T13:23:41Z</time>
      </trkpt>
      <trkpt lat="47.21417" lon="5.45883">
        <ele>200</ele>
        <time>2018-01-19T13:23:49Z</time>
      </trkpt>
      <trkpt lat="47.21399" lon="5.45871">
        <ele>200</ele>
        <time>2018-01-19T13:23:53Z</time>
      </trkpt>
      <trkpt lat="47.21386" lon="5.45862">
        <ele>201</ele>
        <time>2018-01-19T13:23:56Z</time>
      </trkpt>
      <trkpt lat="47.21361" lon="5.45844">
        <ele>201</ele>
        <time>2018-01-19T13:24:01Z</time>
      </trkpt>
      <trkpt lat="47.21333" lon="5.45827">
        <ele>201</ele>
        <time>2018-01-19T13:24:06Z</time>
      </trkpt>
      <trkpt lat="47.21302" lon="5.45807">
        <ele>199</ele>
        <time>2018-01-19T13:24:11Z</time>
      </trkpt>
      <trkpt lat="47.21246" lon="5.45776">
        <ele>197</ele>
        <time>2018-01-19T13:24:20Z</time>
      </trkpt>
      <trkpt lat="47.21241" lon="5.45772">
        <ele>198</ele>
        <time>2018-01-19T13:24:21Z</time>
      </trkpt>
      <trkpt lat="47.21215" lon="5.45762">
        <ele>199</ele>
        <time>2018-01-19T13:24:26Z</time>
      </trkpt>
      <trkpt lat="47.21189" lon="5.45742">
        <ele>204</ele>
        <time>2018-01-19T13:24:31Z</time>
      </trkpt>
      <trkpt lat="47.21154" lon="5.45758">
        <ele>187</ele>
        <time>2018-01-19T13:24:36Z</time>
      </trkpt>
      <trkpt lat="47.21113" lon="5.45796">
        <ele>180</ele>
        <time>2018-01-19T13:24:44Z</time>
      </trkpt>
      <trkpt lat="47.21101" lon="5.45805">
        <ele>178</ele>
        <time>2018-01-19T13:24:47Z</time>
      </trkpt>
      <trkpt lat="47.21071" lon="5.45837">
        <ele>174</ele>
        <time>2018-01-19T13:24:55Z</time>
      </trkpt>
      <trkpt lat="47.21069" lon="5.4584">
        <ele>175</ele>
        <time>2018-01-19T13:24:56Z</time>
      </trkpt>
      <trkpt lat="47.21041" lon="5.45871">
        <ele>177</ele>
        <time>2018-01-19T13:25:05Z</time>
      </trkpt>
      <trkpt lat="47.21035" lon="5.45877">
        <ele>177</ele>
        <time>2018-01-19T13:25:07Z</time>
      </trkpt>
      <trkpt lat="47.21023" lon="5.45891">
        <ele>180</ele>
        <time>2018-01-19T13:25:11Z</time>
      </trkpt>
      <trkpt lat="47.21009" lon="5.45906">
        <ele>181</ele>
        <time>2018-01-19T13:25:16Z</time>
      </trkpt>
      <trkpt lat="47.20996" lon="5.45921">
        <ele>185</ele>
        <time>2018-01-19T13:25:21Z</time>
      </trkpt>
      <trkpt lat="47.20984" lon="5.45934">
        <ele>187</ele>
        <time>2018-01-19T13:25:26Z</time>
      </trkpt>
      <trkpt lat="47.20973" lon="5.45947">
        <ele>187</ele>
        <time>2018-01-19T13:25:31Z</time>
      </trkpt>
      <trkpt lat="47.20963" lon="5.45964">
        <ele>189</ele>
        <time>2018-01-19T13:25:36Z</time>
      </trkpt>
      <trkpt lat="47.20955" lon="5.45983">
        <ele>190</ele>
        <time>2018-01-19T13:25:41Z</time>
      </trkpt>
      <trkpt lat="47.20947" lon="5.46005">
        <ele>192</ele>
        <time>2018-01-19T13:25:46Z</time>
      </trkpt>
      <trkpt lat="47.20941" lon="5.46028">
        <ele>194</ele>
        <time>2018-01-19T13:25:51Z</time>
      </trkpt>
      <trkpt lat="47.20935" lon="5.46051">
        <ele>197</ele>
        <time>2018-01-19T13:25:56Z</time>
      </trkpt>
      <trkpt lat="47.20926" lon="5.46074">
        <ele>196</ele>
        <time>2018-01-19T13:26:01Z</time>
      </trkpt>
      <trkpt lat="47.20921" lon="5.46094">
        <ele>199</ele>
        <time>2018-01-19T13:26:06Z</time>
      </trkpt>
      <trkpt lat="47.20914" lon="5.46124">
        <ele>204</ele>
        <time>2018-01-19T13:26:14Z</time>
      </trkpt>
      <trkpt lat="47.20912" lon="5.4613">
        <ele>204</ele>
        <time>2018-01-19T13:26:16Z</time>
      </trkpt>
      <trkpt lat="47.20908" lon="5.46147">
        <ele>206</ele>
        <time>2018-01-19T13:26:21Z</time>
      </trkpt>
      <trkpt lat="47.20901" lon="5.46176">
        <ele>210</ele>
        <time>2018-01-19T13:26:29Z</time>
      </trkpt>
      <trkpt lat="47.20899" lon="5.46183">
        <ele>211</ele>
        <time>2018-01-19T13:26:31Z</time>
      </trkpt>
      <trkpt lat="47.20893" lon="5.46202">
        <ele>211</ele>
        <time>2018-01-19T13:26:36Z</time>
      </trkpt>
      <trkpt lat="47.20887" lon="5.46222">
        <ele>211</ele>
        <time>2018-01-19T13:26:41Z</time>
      </trkpt>
      <trkpt lat="47.20873" lon="5.46256">
        <ele>207</ele>
        <time>2018-01-19T13:26:46Z</time>
      </trkpt>
      <trkpt lat="47.20857" lon="5.46292">
        <ele>201</ele>
        <time>2018-01-19T13:26:51Z</time>
      </trkpt>
      <trkpt lat="47.2084" lon="5.46321">
        <ele>200</ele>
        <time>2018-01-19T13:26:56Z</time>
      </trkpt>
      <trkpt lat="47.20819" lon="5.46343">
        <ele>199</ele>
        <time>2018-01-19T13:27:01Z</time>
      </trkpt>
      <trkpt lat="47.20792" lon="5.46375">
        <ele>196</ele>
        <time>2018-01-19T13:27:09Z</time>
      </trkpt>
      <trkpt lat="47.20784" lon="5.46386">
        <ele>198</ele>
        <time>2018-01-19T13:27:13Z</time>
      </trkpt>
      <trkpt lat="47.20778" lon="5.46393">
        <ele>199</ele>
        <time>2018-01-19T13:27:16Z</time>
      </trkpt>
      <trkpt lat="47.20766" lon="5.4641">
        <ele>200</ele>
        <time>2018-01-19T13:27:21Z</time>
      </trkpt>
      <trkpt lat="47.20754" lon="5.46423">
        <ele>199</ele>
        <time>2018-01-19T13:27:26Z</time>
      </trkpt>
      <trkpt lat="47.20741" lon="5.46437">
        <ele>199</ele>
        <time>2018-01-19T13:27:31Z</time>
      </trkpt>
      <trkpt lat="47.20728" lon="5.46453">
        <ele>197</ele>
        <time>2018-01-19T13:27:36Z</time>
      </trkpt>
      <trkpt lat="47.20715" lon="5.4647">
        <ele>198</ele>
        <time>2018-01-19T13:27:41Z</time>
      </trkpt>
      <trkpt lat="47.20702" lon="5.46485">
        <ele>199</ele>
        <time>2018-01-19T13:27:45Z</time>
      </trkpt>
      <trkpt lat="47.20687" lon="5.465">
        <ele>197</ele>
        <time>2018-01-19T13:27:50Z</time>
      </trkpt>
      <trkpt lat="47.20673" lon="5.46514">
        <ele>196</ele>
        <time>2018-01-19T13:27:55Z</time>
      </trkpt>
      <trkpt lat="47.20656" lon="5.46525">
        <ele>199</ele>
        <time>2018-01-19T13:28:01Z</time>
      </trkpt>
      <trkpt lat="47.20643" lon="5.46535">
        <ele>202</ele>
        <time>2018-01-19T13:28:05Z</time>
      </trkpt>
      <trkpt lat="47.2062" lon="5.46552">
        <ele>206</ele>
        <time>2018-01-19T13:28:11Z</time>
      </trkpt>
      <trkpt lat="47.206" lon="5.46559">
        <ele>208</ele>
        <time>2018-01-19T13:28:15Z</time>
      </trkpt>
      <trkpt lat="47.2056" lon="5.46576">
        <ele>214</ele>
        <time>2018-01-19T13:28:23Z</time>
      </trkpt>
      <trkpt lat="47.20543" lon="5.46586">
        <ele>217</ele>
        <time>2018-01-19T13:28:27Z</time>
      </trkpt>
      <trkpt lat="47.20535" lon="5.46594">
        <ele>217</ele>
        <time>2018-01-19T13:28:30Z</time>
      </trkpt>
      <trkpt lat="47.20499" lon="5.46614">
        <ele>215</ele>
        <time>2018-01-19T13:28:39Z</time>
      </trkpt>
      <trkpt lat="47.20495" lon="5.46616">
        <ele>214</ele>
        <time>2018-01-19T13:28:40Z</time>
      </trkpt>
      <trkpt lat="47.20473" lon="5.46629">
        <ele>223</ele>
        <time>2018-01-19T13:28:46Z</time>
      </trkpt>
      <trkpt lat="47.20461" lon="5.46637">
        <ele>224</ele>
        <time>2018-01-19T13:28:50Z</time>
      </trkpt>
      <trkpt lat="47.20446" lon="5.46645">
        <ele>226</ele>
        <time>2018-01-19T13:28:55Z</time>
      </trkpt>
      <trkpt lat="47.20427" lon="5.46654">
        <ele>228</ele>
        <time>2018-01-19T13:29:00Z</time>
      </trkpt>
      <trkpt lat="47.2039" lon="5.46673">
        <ele>213</ele>
        <time>2018-01-19T13:29:06Z</time>
      </trkpt>
      <trkpt lat="47.20377" lon="5.4668">
        <ele>215</ele>
        <time>2018-01-19T13:29:10Z</time>
      </trkpt>
      <trkpt lat="47.20352" lon="5.46697">
        <ele>218</ele>
        <time>2018-01-19T13:29:16Z</time>
      </trkpt>
      <trkpt lat="47.20314" lon="5.46719">
        <ele>220</ele>
        <time>2018-01-19T13:29:24Z</time>
      </trkpt>
      <trkpt lat="47.20309" lon="5.46723">
        <ele>220</ele>
        <time>2018-01-19T13:29:25Z</time>
      </trkpt>
      <trkpt lat="47.20289" lon="5.46738">
        <ele>224</ele>
        <time>2018-01-19T13:29:30Z</time>
      </trkpt>
      <trkpt lat="47.20261" lon="5.46765">
        <ele>224</ele>
        <time>2018-01-19T13:29:38Z</time>
      </trkpt>
      <trkpt lat="47.20254" lon="5.46775">
        <ele>223</ele>
        <time>2018-01-19T13:29:40Z</time>
      </trkpt>
      <trkpt lat="47.20231" lon="5.46807">
        <ele>218</ele>
        <time>2018-01-19T13:29:45Z</time>
      </trkpt>
      <trkpt lat="47.20208" lon="5.46843">
        <ele>212</ele>
        <time>2018-01-19T13:29:50Z</time>
      </trkpt>
      <trkpt lat="47.20173" lon="5.46898">
        <ele>213</ele>
        <time>2018-01-19T13:29:58Z</time>
      </trkpt>
      <trkpt lat="47.20155" lon="5.46926">
        <ele>215</ele>
        <time>2018-01-19T13:30:04Z</time>
      </trkpt>
      <trkpt lat="47.20153" lon="5.4693">
        <ele>215</ele>
        <time>2018-01-19T13:30:05Z</time>
      </trkpt>
      <trkpt lat="47.20143" lon="5.46952">
        <ele>216</ele>
        <time>2018-01-19T13:30:10Z</time>
      </trkpt>
      <trkpt lat="47.20117" lon="5.46993">
        <ele>217</ele>
        <time>2018-01-19T13:30:19Z</time>
      </trkpt>
      <trkpt lat="47.20114" lon="5.46997">
        <ele>217</ele>
        <time>2018-01-19T13:30:20Z</time>
      </trkpt>
      <trkpt lat="47.20093" lon="5.47034">
        <ele>219</ele>
        <time>2018-01-19T13:30:27Z</time>
      </trkpt>
      <trkpt lat="47.20081" lon="5.47052">
        <ele>220</ele>
        <time>2018-01-19T13:30:30Z</time>
      </trkpt>
      <trkpt lat="47.20059" lon="5.47082">
        <ele>213</ele>
        <time>2018-01-19T13:30:35Z</time>
      </trkpt>
      <trkpt lat="47.20016" lon="5.47143">
        <ele>196</ele>
        <time>2018-01-19T13:30:44Z</time>
      </trkpt>
      <trkpt lat="47.2" lon="5.47168">
        <ele>195</ele>
        <time>2018-01-19T13:30:48Z</time>
      </trkpt>
      <trkpt lat="47.19986" lon="5.47195">
        <ele>197</ele>
        <time>2018-01-19T13:30:53Z</time>
      </trkpt>
      <trkpt lat="47.1998" lon="5.47205">
        <ele>197</ele>
        <time>2018-01-19T13:30:55Z</time>
      </trkpt>
      <trkpt lat="47.19966" lon="5.47229">
        <ele>197</ele>
        <time>2018-01-19T13:31:00Z</time>
      </trkpt>
      <trkpt lat="47.19953" lon="5.47251">
        <ele>197</ele>
        <time>2018-01-19T13:31:05Z</time>
      </trkpt>
      <trkpt lat="47.19939" lon="5.47276">
        <ele>199</ele>
        <time>2018-01-19T13:31:10Z</time>
      </trkpt>
      <trkpt lat="47.19924" lon="5.47303">
        <ele>198</ele>
        <time>2018-01-19T13:31:15Z</time>
      </trkpt>
      <trkpt lat="47.19911" lon="5.47332">
        <ele>198</ele>
        <time>2018-01-19T13:31:20Z</time>
      </trkpt>
      <trkpt lat="47.19899" lon="5.47362">
        <ele>201</ele>
        <time>2018-01-19T13:31:25Z</time>
      </trkpt>
      <trkpt lat="47.19889" lon="5.47391">
        <ele>202</ele>
        <time>2018-01-19T13:31:30Z</time>
      </trkpt>
      <trkpt lat="47.19868" lon="5.47437">
        <ele>201</ele>
        <time>2018-01-19T13:31:37Z</time>
      </trkpt>
      <trkpt lat="47.19859" lon="5.47457">
        <ele>200</ele>
        <time>2018-01-19T13:31:40Z</time>
      </trkpt>
      <trkpt lat="47.19844" lon="5.47498">
        <ele>204</ele>
        <time>2018-01-19T13:31:46Z</time>
      </trkpt>
      <trkpt lat="47.19832" lon="5.47525">
        <ele>200</ele>
        <time>2018-01-19T13:31:50Z</time>
      </trkpt>
      <trkpt lat="47.19821" lon="5.47568">
        <ele>201</ele>
        <time>2018-01-19T13:31:56Z</time>
      </trkpt>
      <trkpt lat="47.19812" lon="5.47599">
        <ele>200</ele>
        <time>2018-01-19T13:32:00Z</time>
      </trkpt>
      <trkpt lat="47.19808" lon="5.47641">
        <ele>196</ele>
        <time>2018-01-19T13:32:06Z</time>
      </trkpt>
      <trkpt lat="47.19808" lon="5.4767">
        <ele>197</ele>
        <time>2018-01-19T13:32:10Z</time>
      </trkpt>
      <trkpt lat="47.19807" lon="5.47706">
        <ele>195</ele>
        <time>2018-01-19T13:32:15Z</time>
      </trkpt>
      <trkpt lat="47.19806" lon="5.47738">
        <ele>193</ele>
        <time>2018-01-19T13:32:20Z</time>
      </trkpt>
      <trkpt lat="47.19809" lon="5.47771">
        <ele>192</ele>
        <time>2018-01-19T13:32:25Z</time>
      </trkpt>
      <trkpt lat="47.19812" lon="5.47815">
        <ele>192</ele>
        <time>2018-01-19T13:32:31Z</time>
      </trkpt>
      <trkpt lat="47.19815" lon="5.47844">
        <ele>191</ele>
        <time>2018-01-19T13:32:35Z</time>
      </trkpt>
      <trkpt lat="47.1981" lon="5.47898">
        <ele>191</ele>
        <time>2018-01-19T13:32:43Z</time>
      </trkpt>
      <trkpt lat="47.19794" lon="5.47918">
        <ele>191</ele>
        <time>2018-01-19T13:32:47Z</time>
      </trkpt>
      <trkpt lat="47.19782" lon="5.47931">
        <ele>193</ele>
        <time>2018-01-19T13:32:50Z</time>
      </trkpt>
      <trkpt lat="47.19762" lon="5.47954">
        <ele>194</ele>
        <time>2018-01-19T13:32:55Z</time>
      </trkpt>
      <trkpt lat="47.19742" lon="5.47976">
        <ele>196</ele>
        <time>2018-01-19T13:33:00Z</time>
      </trkpt>
      <trkpt lat="47.19721" lon="5.47993">
        <ele>193</ele>
        <time>2018-01-19T13:33:05Z</time>
      </trkpt>
      <trkpt lat="47.19699" lon="5.48013">
        <ele>193</ele>
        <time>2018-01-19T13:33:10Z</time>
      </trkpt>
      <trkpt lat="47.19681" lon="5.48031">
        <ele>195</ele>
        <time>2018-01-19T13:33:15Z</time>
      </trkpt>
      <trkpt lat="47.19659" lon="5.48051">
        <ele>197</ele>
        <time>2018-01-19T13:33:20Z</time>
      </trkpt>
      <trkpt lat="47.1964" lon="5.48069">
        <ele>196</ele>
        <time>2018-01-19T13:33:25Z</time>
      </trkpt>
      <trkpt lat="47.19613" lon="5.48093">
        <ele>194</ele>
        <time>2018-01-19T13:33:31Z</time>
      </trkpt>
      <trkpt lat="47.196" lon="5.4811">
        <ele>195</ele>
        <time>2018-01-19T13:33:35Z</time>
      </trkpt>
      <trkpt lat="47.19586" lon="5.4813">
        <ele>196</ele>
        <time>2018-01-19T13:33:40Z</time>
      </trkpt>
      <trkpt lat="47.19573" lon="5.4815">
        <ele>196</ele>
        <time>2018-01-19T13:33:45Z</time>
      </trkpt>
      <trkpt lat="47.19562" lon="5.48168">
        <ele>197</ele>
        <time>2018-01-19T13:33:50Z</time>
      </trkpt>
      <trkpt lat="47.19549" lon="5.48187">
        <ele>198</ele>
        <time>2018-01-19T13:33:55Z</time>
      </trkpt>
      <trkpt lat="47.19537" lon="5.48204">
        <ele>197</ele>
        <time>2018-01-19T13:34:00Z</time>
      </trkpt>
      <trkpt lat="47.19523" lon="5.4822">
        <ele>197</ele>
        <time>2018-01-19T13:34:05Z</time>
      </trkpt>
      <trkpt lat="47.19506" lon="5.48232">
        <ele>199</ele>
        <time>2018-01-19T13:34:10Z</time>
      </trkpt>
      <trkpt lat="47.19486" lon="5.48239">
        <ele>200</ele>
        <time>2018-01-19T13:34:16Z</time>
      </trkpt>
      <trkpt lat="47.19471" lon="5.48242">
        <ele>202</ele>
        <time>2018-01-19T13:34:20Z</time>
      </trkpt>
      <trkpt lat="47.19452" lon="5.48251">
        <ele>199</ele>
        <time>2018-01-19T13:34:25Z</time>
      </trkpt>
      <trkpt lat="47.19438" lon="5.48267">
        <ele>194</ele>
        <time>2018-01-19T13:34:30Z</time>
      </trkpt>
      <trkpt lat="47.19431" lon="5.48282">
        <ele>198</ele>
        <time>2018-01-19T13:34:38Z</time>
      </trkpt>
      <trkpt lat="47.19434" lon="5.48289">
        <ele>199</ele>
        <time>2018-01-19T13:34:40Z</time>
      </trkpt>
      <trkpt lat="47.19444" lon="5.48308">
        <ele>201</ele>
        <time>2018-01-19T13:34:45Z</time>
      </trkpt>
      <trkpt lat="47.19454" lon="5.48331">
        <ele>202</ele>
        <time>2018-01-19T13:34:50Z</time>
      </trkpt>
      <trkpt lat="47.1947" lon="5.48359">
        <ele>202</ele>
        <time>2018-01-19T13:34:56Z</time>
      </trkpt>
      <trkpt lat="47.19484" lon="5.48378">
        <ele>201</ele>
        <time>2018-01-19T13:35:00Z</time>
      </trkpt>
      <trkpt lat="47.1951" lon="5.48425">
        <ele>199</ele>
        <time>2018-01-19T13:35:08Z</time>
      </trkpt>
      <trkpt lat="47.19517" lon="5.48436">
        <ele>198</ele>
        <time>2018-01-19T13:35:10Z</time>
      </trkpt>
      <trkpt lat="47.19535" lon="5.48466">
        <ele>196</ele>
        <time>2018-01-19T13:35:15Z</time>
      </trkpt>
      <trkpt lat="47.19559" lon="5.4851">
        <ele>194</ele>
        <time>2018-01-19T13:35:22Z</time>
      </trkpt>
      <trkpt lat="47.19571" lon="5.4853">
        <ele>194</ele>
        <time>2018-01-19T13:35:25Z</time>
      </trkpt>
      <trkpt lat="47.19592" lon="5.48565">
        <ele>192</ele>
        <time>2018-01-19T13:35:30Z</time>
      </trkpt>
      <trkpt lat="47.19613" lon="5.48601">
        <ele>191</ele>
        <time>2018-01-19T13:35:35Z</time>
      </trkpt>
      <trkpt lat="47.19636" lon="5.48637">
        <ele>192</ele>
        <time>2018-01-19T13:35:40Z</time>
      </trkpt>
      <trkpt lat="47.19659" lon="5.48677">
        <ele>190</ele>
        <time>2018-01-19T13:35:45Z</time>
      </trkpt>
      <trkpt lat="47.19699" lon="5.48745">
        <ele>190</ele>
        <time>2018-01-19T13:35:53Z</time>
      </trkpt>
      <trkpt lat="47.19709" lon="5.48764">
        <ele>190</ele>
        <time>2018-01-19T13:35:55Z</time>
      </trkpt>
      <trkpt lat="47.19734" lon="5.48809">
        <ele>188</ele>
        <time>2018-01-19T13:36:00Z</time>
      </trkpt>
      <trkpt lat="47.19759" lon="5.48854">
        <ele>187</ele>
        <time>2018-01-19T13:36:05Z</time>
      </trkpt>
      <trkpt lat="47.19782" lon="5.48896">
        <ele>185</ele>
        <time>2018-01-19T13:36:10Z</time>
      </trkpt>
      <trkpt lat="47.19805" lon="5.48936">
        <ele>187</ele>
        <time>2018-01-19T13:36:15Z</time>
      </trkpt>
      <trkpt lat="47.19828" lon="5.48976">
        <ele>187</ele>
        <time>2018-01-19T13:36:20Z</time>
      </trkpt>
      <trkpt lat="47.1986" lon="5.49033">
        <ele>187</ele>
        <time>2018-01-19T13:36:27Z</time>
      </trkpt>
      <trkpt lat="47.19881" lon="5.49071">
        <ele>186</ele>
        <time>2018-01-19T13:36:32Z</time>
      </trkpt>
      <trkpt lat="47.19895" lon="5.49104">
        <ele>186</ele>
        <time>2018-01-19T13:36:36Z</time>
      </trkpt>
      <trkpt lat="47.1991" lon="5.49133">
        <ele>188</ele>
        <time>2018-01-19T13:36:40Z</time>
      </trkpt>
      <trkpt lat="47.19926" lon="5.49165">
        <ele>192</ele>
        <time>2018-01-19T13:36:45Z</time>
      </trkpt>
      <trkpt lat="47.19945" lon="5.49204">
        <ele>196</ele>
        <time>2018-01-19T13:36:53Z</time>
      </trkpt>
      <trkpt lat="47.19948" lon="5.49212">
        <ele>197</ele>
        <time>2018-01-19T13:36:55Z</time>
      </trkpt>
      <trkpt lat="47.19955" lon="5.49231">
        <ele>197</ele>
        <time>2018-01-19T13:37:00Z</time>
      </trkpt>
      <trkpt lat="47.1996" lon="5.49248">
        <ele>198</ele>
        <time>2018-01-19T13:37:05Z</time>
      </trkpt>
      <trkpt lat="47.19968" lon="5.49273">
        <ele>200</ele>
        <time>2018-01-19T13:37:12Z</time>
      </trkpt>
      <trkpt lat="47.19972" lon="5.49283">
        <ele>202</ele>
        <time>2018-01-19T13:37:15Z</time>
      </trkpt>
      <trkpt lat="47.19977" lon="5.49299">
        <ele>203</ele>
        <time>2018-01-19T13:37:20Z</time>
      </trkpt>
      <trkpt lat="47.19988" lon="5.49327">
        <ele>204</ele>
        <time>2018-01-19T13:37:29Z</time>
      </trkpt>
      <trkpt lat="47.1999" lon="5.4933">
        <ele>205</ele>
        <time>2018-01-19T13:37:30Z</time>
      </trkpt>
      <trkpt lat="47.19996" lon="5.49342">
        <ele>205</ele>
        <time>2018-01-19T13:37:35Z</time>
      </trkpt>
      <trkpt lat="47.20003" lon="5.49355">
        <ele>206</ele>
        <time>2018-01-19T13:37:40Z</time>
      </trkpt>
      <trkpt lat="47.20014" lon="5.49375">
        <ele>207</ele>
        <time>2018-01-19T13:37:47Z</time>
      </trkpt>
      <trkpt lat="47.20019" lon="5.49383">
        <ele>208</ele>
        <time>2018-01-19T13:37:50Z</time>
      </trkpt>
      <trkpt lat="47.20029" lon="5.49398">
        <ele>208</ele>
        <time>2018-01-19T13:37:56Z</time>
      </trkpt>
      <trkpt lat="47.20035" lon="5.49409">
        <ele>208</ele>
        <time>2018-01-19T13:38:00Z</time>
      </trkpt>
      <trkpt lat="47.20044" lon="5.49425">
        <ele>209</ele>
        <time>2018-01-19T13:38:05Z</time>
      </trkpt>
      <trkpt lat="47.20053" lon="5.4944">
        <ele>209</ele>
        <time>2018-01-19T13:38:10Z</time>
      </trkpt>
      <trkpt lat="47.20061" lon="5.49457">
        <ele>210</ele>
        <time>2018-01-19T13:38:15Z</time>
      </trkpt>
      <trkpt lat="47.20074" lon="5.49488">
        <ele>213</ele>
        <time>2018-01-19T13:38:24Z</time>
      </trkpt>
      <trkpt lat="47.20076" lon="5.49492">
        <ele>213</ele>
        <time>2018-01-19T13:38:25Z</time>
      </trkpt>
      <trkpt lat="47.20084" lon="5.49511">
        <ele>212</ele>
        <time>2018-01-19T13:38:30Z</time>
      </trkpt>
      <trkpt lat="47.20093" lon="5.49532">
        <ele>211</ele>
        <time>2018-01-19T13:38:35Z</time>
      </trkpt>
      <trkpt lat="47.20111" lon="5.49562">
        <ele>212</ele>
        <time>2018-01-19T13:38:44Z</time>
      </trkpt>
      <trkpt lat="47.20115" lon="5.49569">
        <ele>211</ele>
        <time>2018-01-19T13:38:46Z</time>
      </trkpt>
      <trkpt lat="47.20124" lon="5.49582">
        <ele>212</ele>
        <time>2018-01-19T13:38:50Z</time>
      </trkpt>
      <trkpt lat="47.20135" lon="5.49601">
        <ele>213</ele>
        <time>2018-01-19T13:38:55Z</time>
      </trkpt>
      <trkpt lat="47.20146" lon="5.49616">
        <ele>213</ele>
        <time>2018-01-19T13:39:00Z</time>
      </trkpt>
      <trkpt lat="47.20156" lon="5.4963">
        <ele>213</ele>
        <time>2018-01-19T13:39:05Z</time>
      </trkpt>
      <trkpt lat="47.20167" lon="5.49645">
        <ele>214</ele>
        <time>2018-01-19T13:39:10Z</time>
      </trkpt>
      <trkpt lat="47.20179" lon="5.4966">
        <ele>214</ele>
        <time>2018-01-19T13:39:15Z</time>
      </trkpt>
      <trkpt lat="47.20194" lon="5.49677">
        <ele>214</ele>
        <time>2018-01-19T13:39:21Z</time>
      </trkpt>
      <trkpt lat="47.20204" lon="5.49688">
        <ele>215</ele>
        <time>2018-01-19T13:39:25Z</time>
      </trkpt>
      <trkpt lat="47.20218" lon="5.49701">
        <ele>216</ele>
        <time>2018-01-19T13:39:30Z</time>
      </trkpt>
      <trkpt lat="47.20231" lon="5.4971">
        <ele>217</ele>
        <time>2018-01-19T13:39:35Z</time>
      </trkpt>
      <trkpt lat="47.20245" lon="5.49717">
        <ele>219</ele>
        <time>2018-01-19T13:39:40Z</time>
      </trkpt>
      <trkpt lat="47.20268" lon="5.49726">
        <ele>222</ele>
        <time>2018-01-19T13:39:49Z</time>
      </trkpt>
      <trkpt lat="47.20271" lon="5.49727">
        <ele>222</ele>
        <time>2018-01-19T13:39:50Z</time>
      </trkpt>
      <trkpt lat="47.20287" lon="5.49735">
        <ele>224</ele>
        <time>2018-01-19T13:39:56Z</time>
      </trkpt>
      <trkpt lat="47.20302" lon="5.49752">
        <ele>223</ele>
        <time>2018-01-19T13:40:04Z</time>
      </trkpt>
      <trkpt lat="47.2031" lon="5.49761">
        <ele>225</ele>
        <time>2018-01-19T13:40:07Z</time>
      </trkpt>
      <trkpt lat="47.20319" lon="5.49768">
        <ele>227</ele>
        <time>2018-01-19T13:40:10Z</time>
      </trkpt>
      <trkpt lat="47.20332" lon="5.49781">
        <ele>229</ele>
        <time>2018-01-19T13:40:15Z</time>
      </trkpt>
      <trkpt lat="47.20344" lon="5.49792">
        <ele>231</ele>
        <time>2018-01-19T13:40:20Z</time>
      </trkpt>
      <trkpt lat="47.20357" lon="5.49804">
        <ele>232</ele>
        <time>2018-01-19T13:40:25Z</time>
      </trkpt>
      <trkpt lat="47.20368" lon="5.49817">
        <ele>233</ele>
        <time>2018-01-19T13:40:30Z</time>
      </trkpt>
      <trkpt lat="47.20375" lon="5.49838">
        <ele>236</ele>
        <time>2018-01-19T13:40:35Z</time>
      </trkpt>
      <trkpt lat="47.20377" lon="5.49858">
        <ele>238</ele>
        <time>2018-01-19T13:40:40Z</time>
      </trkpt>
      <trkpt lat="47.20375" lon="5.49882">
        <ele>238</ele>
        <time>2018-01-19T13:40:45Z</time>
      </trkpt>
      <trkpt lat="47.20372" lon="5.49907">
        <ele>237</ele>
        <time>2018-01-19T13:40:50Z</time>
      </trkpt>
      <trkpt lat="47.20377" lon="5.49928">
        <ele>236</ele>
        <time>2018-01-19T13:40:55Z</time>
      </trkpt>
      <trkpt lat="47.2039" lon="5.49949">
        <ele>238</ele>
        <time>2018-01-19T13:41:00Z</time>
      </trkpt>
      <trkpt lat="47.20407" lon="5.49958">
        <ele>239</ele>
        <time>2018-01-19T13:41:05Z</time>
      </trkpt>
      <trkpt lat="47.20423" lon="5.49967">
        <ele>238</ele>
        <time>2018-01-19T13:41:10Z</time>
      </trkpt>
      <trkpt lat="47.2044" lon="5.49979">
        <ele>238</ele>
        <time>2018-01-19T13:41:15Z</time>
      </trkpt>
      <trkpt lat="47.20463" lon="5.49996">
        <ele>242</ele>
        <time>2018-01-19T13:41:21Z</time>
      </trkpt>
      <trkpt lat="47.20476" lon="5.50006">
        <ele>242</ele>
        <time>2018-01-19T13:41:25Z</time>
      </trkpt>
      <trkpt lat="47.20492" lon="5.50024">
        <ele>243</ele>
        <time>2018-01-19T13:41:30Z</time>
      </trkpt>
      <trkpt lat="47.20507" lon="5.50042">
        <ele>244</ele>
        <time>2018-01-19T13:41:35Z</time>
      </trkpt>
      <trkpt lat="47.20539" lon="5.50059">
        <ele>242</ele>
        <time>2018-01-19T13:41:40Z</time>
      </trkpt>
      <trkpt lat="47.20585" lon="5.50095">
        <ele>238</ele>
        <time>2018-01-19T13:41:46Z</time>
      </trkpt>
      <trkpt lat="47.20637" lon="5.50099">
        <ele>233</ele>
        <time>2018-01-19T13:41:51Z</time>
      </trkpt>
      <trkpt lat="47.2068" lon="5.50096">
        <ele>229</ele>
        <time>2018-01-19T13:41:55Z</time>
      </trkpt>
      <trkpt lat="47.20728" lon="5.50115">
        <ele>229</ele>
        <time>2018-01-19T13:42:00Z</time>
      </trkpt>
      <trkpt lat="47.20773" lon="5.50135">
        <ele>229</ele>
        <time>2018-01-19T13:42:06Z</time>
      </trkpt>
      <trkpt lat="47.20812" lon="5.50158">
        <ele>228</ele>
        <time>2018-01-19T13:42:10Z</time>
      </trkpt>
      <trkpt lat="47.20849" lon="5.50182">
        <ele>226</ele>
        <time>2018-01-19T13:42:15Z</time>
      </trkpt>
      <trkpt lat="47.2089" lon="5.50199">
        <ele>222</ele>
        <time>2018-01-19T13:42:20Z</time>
      </trkpt>
      <trkpt lat="47.20955" lon="5.5022">
        <ele>215</ele>
        <time>2018-01-19T13:42:27Z</time>
      </trkpt>
      <trkpt lat="47.20987" lon="5.50217">
        <ele>214</ele>
        <time>2018-01-19T13:42:30Z</time>
      </trkpt>
      <trkpt lat="47.2103" lon="5.50172">
        <ele>212</ele>
        <time>2018-01-19T13:42:35Z</time>
      </trkpt>
      <trkpt lat="47.21061" lon="5.50116">
        <ele>211</ele>
        <time>2018-01-19T13:42:40Z</time>
      </trkpt>
      <trkpt lat="47.21098" lon="5.50083">
        <ele>210</ele>
        <time>2018-01-19T13:42:45Z</time>
      </trkpt>
      <trkpt lat="47.21134" lon="5.50107">
        <ele>209</ele>
        <time>2018-01-19T13:42:50Z</time>
      </trkpt>
      <trkpt lat="47.21167" lon="5.50131">
        <ele>209</ele>
        <time>2018-01-19T13:42:55Z</time>
      </trkpt>
      <trkpt lat="47.21201" lon="5.50156">
        <ele>208</ele>
        <time>2018-01-19T13:43:00Z</time>
      </trkpt>
      <trkpt lat="47.21235" lon="5.50182">
        <ele>212</ele>
        <time>2018-01-19T13:43:05Z</time>
      </trkpt>
      <trkpt lat="47.21268" lon="5.50208">
        <ele>213</ele>
        <time>2018-01-19T13:43:10Z</time>
      </trkpt>
      <trkpt lat="47.213" lon="5.50234">
        <ele>214</ele>
        <time>2018-01-19T13:43:15Z</time>
      </trkpt>
      <trkpt lat="47.2133" lon="5.50253">
        <ele>213</ele>
        <time>2018-01-19T13:43:20Z</time>
      </trkpt>
      <trkpt lat="47.21362" lon="5.50262">
        <ele>211</ele>
        <time>2018-01-19T13:43:25Z</time>
      </trkpt>
      <trkpt lat="47.21394" lon="5.50263">
        <ele>210</ele>
        <time>2018-01-19T13:43:30Z</time>
      </trkpt>
      <trkpt lat="47.21426" lon="5.50262">
        <ele>210</ele>
        <time>2018-01-19T13:43:35Z</time>
      </trkpt>
      <trkpt lat="47.2146" lon="5.50261">
        <ele>209</ele>
        <time>2018-01-19T13:43:40Z</time>
      </trkpt>
      <trkpt lat="47.21496" lon="5.5026">
        <ele>211</ele>
        <time>2018-01-19T13:43:45Z</time>
      </trkpt>
      <trkpt lat="47.21531" lon="5.50259">
        <ele>213</ele>
        <time>2018-01-19T13:43:50Z</time>
      </trkpt>
      <trkpt lat="47.21563" lon="5.5026">
        <ele>212</ele>
        <time>2018-01-19T13:43:55Z</time>
      </trkpt>
      <trkpt lat="47.21593" lon="5.50259">
        <ele>212</ele>
        <time>2018-01-19T13:44:00Z</time>
      </trkpt>
      <trkpt lat="47.21621" lon="5.50258">
        <ele>212</ele>
        <time>2018-01-19T13:44:05Z</time>
      </trkpt>
      <trkpt lat="47.21646" lon="5.50258">
        <ele>215</ele>
        <time>2018-01-19T13:44:10Z</time>
      </trkpt>
      <trkpt lat="47.21671" lon="5.50257">
        <ele>214</ele>
        <time>2018-01-19T13:44:15Z</time>
      </trkpt>
      <trkpt lat="47.21697" lon="5.50257">
        <ele>216</ele>
        <time>2018-01-19T13:44:20Z</time>
      </trkpt>
      <trkpt lat="47.21723" lon="5.50256">
        <ele>215</ele>
        <time>2018-01-19T13:44:25Z</time>
      </trkpt>
      <trkpt lat="47.2175" lon="5.50255">
        <ele>214</ele>
        <time>2018-01-19T13:44:30Z</time>
      </trkpt>
      <trkpt lat="47.21779" lon="5.50254">
        <ele>212</ele>
        <time>2018-01-19T13:44:35Z</time>
      </trkpt>
      <trkpt lat="47.21814" lon="5.50254">
        <ele>210</ele>
        <time>2018-01-19T13:44:40Z</time>
      </trkpt>
      <trkpt lat="47.21856" lon="5.50252">
        <ele>207</ele>
        <time>2018-01-19T13:44:45Z</time>
      </trkpt>
      <trkpt lat="47.219" lon="5.50251">
        <ele>203</ele>
        <time>2018-01-19T13:44:50Z</time>
      </trkpt>
      <trkpt lat="47.21946" lon="5.50236">
        <ele>202</ele>
        <time>2018-01-19T13:44:55Z</time>
      </trkpt>
      <trkpt lat="47.21985" lon="5.50208">
        <ele>201</ele>
        <time>2018-01-19T13:45:00Z</time>
      </trkpt>
      <trkpt lat="47.22022" lon="5.50192">
        <ele>201</ele>
        <time>2018-01-19T13:45:05Z</time>
      </trkpt>
      <trkpt lat="47.22056" lon="5.50187">
        <ele>202</ele>
        <time>2018-01-19T13:45:10Z</time>
      </trkpt>
      <trkpt lat="47.22087" lon="5.50194">
        <ele>201</ele>
        <time>2018-01-19T13:45:15Z</time>
      </trkpt>
      <trkpt lat="47.22115" lon="5.5021">
        <ele>202</ele>
        <time>2018-01-19T13:45:20Z</time>
      </trkpt>
      <trkpt lat="47.22143" lon="5.50228">
        <ele>202</ele>
        <time>2018-01-19T13:45:25Z</time>
      </trkpt>
      <trkpt lat="47.22169" lon="5.50245">
        <ele>202</ele>
        <time>2018-01-19T13:45:30Z</time>
      </trkpt>
      <trkpt lat="47.22209" lon="5.50253">
        <ele>201</ele>
        <time>2018-01-19T13:45:37Z</time>
      </trkpt>
      <trkpt lat="47.22226" lon="5.50249">
        <ele>201</ele>
        <time>2018-01-19T13:45:40Z</time>
      </trkpt>
      <trkpt lat="47.22254" lon="5.50237">
        <ele>201</ele>
        <time>2018-01-19T13:45:45Z</time>
      </trkpt>
      <trkpt lat="47.22275" lon="5.50226">
        <ele>203</ele>
        <time>2018-01-19T13:45:50Z</time>
      </trkpt>
      <trkpt lat="47.22296" lon="5.50212">
        <ele>203</ele>
        <time>2018-01-19T13:45:55Z</time>
      </trkpt>
      <trkpt lat="47.22316" lon="5.50201">
        <ele>203</ele>
        <time>2018-01-19T13:46:00Z</time>
      </trkpt>
      <trkpt lat="47.22333" lon="5.50189">
        <ele>202</ele>
        <time>2018-01-19T13:46:05Z</time>
      </trkpt>
      <trkpt lat="47.22351" lon="5.50183">
        <ele>199</ele>
        <time>2018-01-19T13:46:10Z</time>
      </trkpt>
      <trkpt lat="47.22359" lon="5.50198">
        <ele>199</ele>
        <time>2018-01-19T13:46:15Z</time>
      </trkpt>
      <trkpt lat="47.22359" lon="5.50217">
        <ele>201</ele>
        <time>2018-01-19T13:46:20Z</time>
      </trkpt>
      <trkpt lat="47.2236" lon="5.50237">
        <ele>202</ele>
        <time>2018-01-19T13:46:26Z</time>
      </trkpt>
      <trkpt lat="47.2236" lon="5.50255">
        <ele>205</ele>
        <time>2018-01-19T13:46:30Z</time>
      </trkpt>
      <trkpt lat="47.22362" lon="5.50275">
        <ele>206</ele>
        <time>2018-01-19T13:46:35Z</time>
      </trkpt>
      <trkpt lat="47.22361" lon="5.50299">
        <ele>205</ele>
        <time>2018-01-19T13:46:40Z</time>
      </trkpt>
      <trkpt lat="47.22365" lon="5.50319">
        <ele>203</ele>
        <time>2018-01-19T13:46:45Z</time>
      </trkpt>
      <trkpt lat="47.22372" lon="5.50341">
        <ele>205</ele>
        <time>2018-01-19T13:46:50Z</time>
      </trkpt>
      <trkpt lat="47.22385" lon="5.50353">
        <ele>206</ele>
        <time>2018-01-19T13:46:55Z</time>
      </trkpt>
      <trkpt lat="47.22404" lon="5.50355">
        <ele>209</ele>
        <time>2018-01-19T13:47:00Z</time>
      </trkpt>
      <trkpt lat="47.22422" lon="5.50356">
        <ele>209</ele>
        <time>2018-01-19T13:47:05Z</time>
      </trkpt>
      <trkpt lat="47.22441" lon="5.50355">
        <ele>209</ele>
        <time>2018-01-19T13:47:10Z</time>
      </trkpt>
      <trkpt lat="47.22457" lon="5.50353">
        <ele>207</ele>
        <time>2018-01-19T13:47:15Z</time>
      </trkpt>
      <trkpt lat="47.22484" lon="5.50342">
        <ele>206</ele>
        <time>2018-01-19T13:47:22Z</time>
      </trkpt>
      <trkpt lat="47.22513" lon="5.50326">
        <ele>208</ele>
        <time>2018-01-19T13:47:28Z</time>
      </trkpt>
      <trkpt lat="47.22521" lon="5.5032">
        <ele>208</ele>
        <time>2018-01-19T13:47:30Z</time>
      </trkpt>
      <trkpt lat="47.22543" lon="5.50304">
        <ele>212</ele>
        <time>2018-01-19T13:47:35Z</time>
      </trkpt>
      <trkpt lat="47.22562" lon="5.50283">
        <ele>215</ele>
        <time>2018-01-19T13:47:40Z</time>
      </trkpt>
      <trkpt lat="47.22574" lon="5.50258">
        <ele>214</ele>
        <time>2018-01-19T13:47:45Z</time>
      </trkpt>
      <trkpt lat="47.22583" lon="5.5023">
        <ele>215</ele>
        <time>2018-01-19T13:47:50Z</time>
      </trkpt>
      <trkpt lat="47.22589" lon="5.50203">
        <ele>215</ele>
        <time>2018-01-19T13:47:55Z</time>
      </trkpt>
      <trkpt lat="47.22595" lon="5.50177">
        <ele>215</ele>
        <time>2018-01-19T13:48:00Z</time>
      </trkpt>
      <trkpt lat="47.22602" lon="5.5015">
        <ele>215</ele>
        <time>2018-01-19T13:48:05Z</time>
      </trkpt>
      <trkpt lat="47.22609" lon="5.50121">
        <ele>215</ele>
        <time>2018-01-19T13:48:10Z</time>
      </trkpt>
      <trkpt lat="47.22615" lon="5.5009">
        <ele>215</ele>
        <time>2018-01-19T13:48:15Z</time>
      </trkpt>
      <trkpt lat="47.22615" lon="5.50061">
        <ele>215</ele>
        <time>2018-01-19T13:48:20Z</time>
      </trkpt>
      <trkpt lat="47.22609" lon="5.50036">
        <ele>216</ele>
        <time>2018-01-19T13:48:25Z</time>
      </trkpt>
      <trkpt lat="47.22619" lon="5.50016">
        <ele>215</ele>
        <time>2018-01-19T13:48:30Z</time>
      </trkpt>
      <trkpt lat="47.22638" lon="5.50009">
        <ele>215</ele>
        <time>2018-01-19T13:48:35Z</time>
      </trkpt>
      <trkpt lat="47.22657" lon="5.49996">
        <ele>216</ele>
        <time>2018-01-19T13:48:40Z</time>
      </trkpt>
      <trkpt lat="47.22677" lon="5.49984">
        <ele>216</ele>
        <time>2018-01-19T13:48:45Z</time>
      </trkpt>
      <trkpt lat="47.22698" lon="5.49973">
        <ele>218</ele>
        <time>2018-01-19T13:48:50Z</time>
      </trkpt>
      <trkpt lat="47.22719" lon="5.4996">
        <ele>218</ele>
        <time>2018-01-19T13:48:55Z</time>
      </trkpt>
      <trkpt lat="47.22739" lon="5.49949">
        <ele>218</ele>
        <time>2018-01-19T13:49:00Z</time>
      </trkpt>
      <trkpt lat="47.2276" lon="5.4994">
        <ele>219</ele>
        <time>2018-01-19T13:49:05Z</time>
      </trkpt>
      <trkpt lat="47.22782" lon="5.4993">
        <ele>219</ele>
        <time>2018-01-19T13:49:10Z</time>
      </trkpt>
      <trkpt lat="47.22803" lon="5.4992">
        <ele>219</ele>
        <time>2018-01-19T13:49:15Z</time>
      </trkpt>
      <trkpt lat="47.22825" lon="5.4991">
        <ele>220</ele>
        <time>2018-01-19T13:49:20Z</time>
      </trkpt>
      <trkpt lat="47.22848" lon="5.49901">
        <ele>220</ele>
        <time>2018-01-19T13:49:25Z</time>
      </trkpt>
      <trkpt lat="47.22871" lon="5.49889">
        <ele>220</ele>
        <time>2018-01-19T13:49:30Z</time>
      </trkpt>
      <trkpt lat="47.22895" lon="5.49881">
        <ele>220</ele>
        <time>2018-01-19T13:49:35Z</time>
      </trkpt>
      <trkpt lat="47.22917" lon="5.49871">
        <ele>220</ele>
        <time>2018-01-19T13:49:40Z</time>
      </trkpt>
      <trkpt lat="47.22941" lon="5.4986">
        <ele>221</ele>
        <time>2018-01-19T13:49:45Z</time>
      </trkpt>
      <trkpt lat="47.22963" lon="5.4985">
        <ele>222</ele>
        <time>2018-01-19T13:49:50Z</time>
      </trkpt>
      <trkpt lat="47.22983" lon="5.49841">
        <ele>223</ele>
        <time>2018-01-19T13:49:55Z</time>
      </trkpt>
      <trkpt lat="47.23001" lon="5.49832">
        <ele>223</ele>
        <time>2018-01-19T13:50:00Z</time>
      </trkpt>
      <trkpt lat="47.23022" lon="5.49823">
        <ele>223</ele>
        <time>2018-01-19T13:50:05Z</time>
      </trkpt>
      <trkpt lat="47.23044" lon="5.49814">
        <ele>224</ele>
        <time>2018-01-19T13:50:10Z</time>
      </trkpt>
      <trkpt lat="47.23066" lon="5.49803">
        <ele>224</ele>
        <time>2018-01-19T13:50:15Z</time>
      </trkpt>
      <trkpt lat="47.2309" lon="5.49794">
        <ele>224</ele>
        <time>2018-01-19T13:50:20Z</time>
      </trkpt>
      <trkpt lat="47.23115" lon="5.49783">
        <ele>223</ele>
        <time>2018-01-19T13:50:25Z</time>
      </trkpt>
      <trkpt lat="47.2314" lon="5.49771">
        <ele>222</ele>
        <time>2018-01-19T13:50:30Z</time>
      </trkpt>
      <trkpt lat="47.23167" lon="5.49754">
        <ele>221</ele>
        <time>2018-01-19T13:50:35Z</time>
      </trkpt>
      <trkpt lat="47.23193" lon="5.49734">
        <ele>221</ele>
        <time>2018-01-19T13:50:40Z</time>
      </trkpt>
      <trkpt lat="47.23212" lon="5.49709">
        <ele>220</ele>
        <time>2018-01-19T13:50:45Z</time>
      </trkpt>
      <trkpt lat="47.23231" lon="5.49689">
        <ele>219</ele>
        <time>2018-01-19T13:50:50Z</time>
      </trkpt>
      <trkpt lat="47.23251" lon="5.49668">
        <ele>220</ele>
        <time>2018-01-19T13:50:55Z</time>
      </trkpt>
      <trkpt lat="47.2327" lon="5.49647">
        <ele>220</ele>
        <time>2018-01-19T13:51:00Z</time>
      </trkpt>
      <trkpt lat="47.23287" lon="5.49624">
        <ele>220</ele>
        <time>2018-01-19T13:51:05Z</time>
      </trkpt>
      <trkpt lat="47.23304" lon="5.496">
        <ele>221</ele>
        <time>2018-01-19T13:51:10Z</time>
      </trkpt>
      <trkpt lat="47.23321" lon="5.49571">
        <ele>218</ele>
        <time>2018-01-19T13:51:15Z</time>
      </trkpt>
      <trkpt lat="47.23339" lon="5.49536">
        <ele>217</ele>
        <time>2018-01-19T13:51:20Z</time>
      </trkpt>
      <trkpt lat="47.23359" lon="5.49504">
        <ele>216</ele>
        <time>2018-01-19T13:51:25Z</time>
      </trkpt>
      <trkpt lat="47.23378" lon="5.49467">
        <ele>216</ele>
        <time>2018-01-19T13:51:30Z</time>
      </trkpt>
      <trkpt lat="47.23398" lon="5.49427">
        <ele>215</ele>
        <time>2018-01-19T13:51:35Z</time>
      </trkpt>
      <trkpt lat="47.23418" lon="5.49384">
        <ele>215</ele>
        <time>2018-01-19T13:51:40Z</time>
      </trkpt>
      <trkpt lat="47.23438" lon="5.49343">
        <ele>215</ele>
        <time>2018-01-19T13:51:45Z</time>
      </trkpt>
      <trkpt lat="47.23459" lon="5.49302">
        <ele>215</ele>
        <time>2018-01-19T13:51:50Z</time>
      </trkpt>
      <trkpt lat="47.23478" lon="5.49262">
        <ele>214</ele>
        <time>2018-01-19T13:51:55Z</time>
      </trkpt>
      <trkpt lat="47.23499" lon="5.49219">
        <ele>213</ele>
        <time>2018-01-19T13:52:00Z</time>
      </trkpt>
      <trkpt lat="47.23521" lon="5.49177">
        <ele>213</ele>
        <time>2018-01-19T13:52:05Z</time>
      </trkpt>
      <trkpt lat="47.2354" lon="5.49136">
        <ele>212</ele>
        <time>2018-01-19T13:52:10Z</time>
      </trkpt>
      <trkpt lat="47.23559" lon="5.49094">
        <ele>212</ele>
        <time>2018-01-19T13:52:15Z</time>
      </trkpt>
      <trkpt lat="47.23576" lon="5.4905">
        <ele>211</ele>
        <time>2018-01-19T13:52:20Z</time>
      </trkpt>
      <trkpt lat="47.23593" lon="5.4901">
        <ele>212</ele>
        <time>2018-01-19T13:52:25Z</time>
      </trkpt>
      <trkpt lat="47.23607" lon="5.48973">
        <ele>212</ele>
        <time>2018-01-19T13:52:30Z</time>
      </trkpt>
      <trkpt lat="47.2362" lon="5.4894">
        <ele>213</ele>
        <time>2018-01-19T13:52:35Z</time>
      </trkpt>
      <trkpt lat="47.23632" lon="5.48906">
        <ele>212</ele>
        <time>2018-01-19T13:52:40Z</time>
      </trkpt>
      <trkpt lat="47.23643" lon="5.4887">
        <ele>211</ele>
        <time>2018-01-19T13:52:45Z</time>
      </trkpt>
      <trkpt lat="47.23655" lon="5.48832">
        <ele>211</ele>
        <time>2018-01-19T13:52:50Z</time>
      </trkpt>
      <trkpt lat="47.23668" lon="5.48792">
        <ele>211</ele>
        <time>2018-01-19T13:52:55Z</time>
      </trkpt>
      <trkpt lat="47.23679" lon="5.4875">
        <ele>209</ele>
        <time>2018-01-19T13:53:00Z</time>
      </trkpt>
      <trkpt lat="47.23693" lon="5.48709">
        <ele>208</ele>
        <time>2018-01-19T13:53:05Z</time>
      </trkpt>
      <trkpt lat="47.23707" lon="5.48669">
        <ele>209</ele>
        <time>2018-01-19T13:53:10Z</time>
      </trkpt>
      <trkpt lat="47.23722" lon="5.48634">
        <ele>208</ele>
        <time>2018-01-19T13:53:15Z</time>
      </trkpt>
      <trkpt lat="47.23738" lon="5.48597">
        <ele>207</ele>
        <time>2018-01-19T13:53:20Z</time>
      </trkpt>
      <trkpt lat="47.23757" lon="5.48556">
        <ele>204</ele>
        <time>2018-01-19T13:53:25Z</time>
      </trkpt>
      <trkpt lat="47.2378" lon="5.48511">
        <ele>203</ele>
        <time>2018-01-19T13:53:30Z</time>
      </trkpt>
      <trkpt lat="47.23803" lon="5.48469">
        <ele>201</ele>
        <time>2018-01-19T13:53:35Z</time>
      </trkpt>
      <trkpt lat="47.23827" lon="5.48437">
        <ele>201</ele>
        <time>2018-01-19T13:53:40Z</time>
      </trkpt>
      <trkpt lat="47.23848" lon="5.48412">
        <ele>200</ele>
        <time>2018-01-19T13:53:45Z</time>
      </trkpt>
      <trkpt lat="47.23865" lon="5.48391">
        <ele>198</ele>
        <time>2018-01-19T13:53:50Z</time>
      </trkpt>
      <trkpt lat="47.23883" lon="5.48366">
        <ele>200</ele>
        <time>2018-01-19T13:53:55Z</time>
      </trkpt>
      <trkpt lat="47.23902" lon="5.48348">
        <ele>202</ele>
        <time>2018-01-19T13:54:00Z</time>
      </trkpt>
      <trkpt lat="47.23921" lon="5.48324">
        <ele>202</ele>
        <time>2018-01-19T13:54:05Z</time>
      </trkpt>
      <trkpt lat="47.23935" lon="5.48298">
        <ele>200</ele>
        <time>2018-01-19T13:54:10Z</time>
      </trkpt>
      <trkpt lat="47.23949" lon="5.48282">
        <ele>200</ele>
        <time>2018-01-19T13:54:15Z</time>
      </trkpt>
      <trkpt lat="47.23957" lon="5.48256">
        <ele>198</ele>
        <time>2018-01-19T13:54:20Z</time>
      </trkpt>
      <trkpt lat="47.23967" lon="5.48229">
        <ele>198</ele>
        <time>2018-01-19T13:54:25Z</time>
      </trkpt>
      <trkpt lat="47.23976" lon="5.482">
        <ele>197</ele>
        <time>2018-01-19T13:54:30Z</time>
      </trkpt>
      <trkpt lat="47.23985" lon="5.48172">
        <ele>198</ele>
        <time>2018-01-19T13:54:35Z</time>
      </trkpt>
      <trkpt lat="47.23996" lon="5.48141">
        <ele>193</ele>
        <time>2018-01-19T13:54:40Z</time>
      </trkpt>
      <trkpt lat="47.24006" lon="5.48108">
        <ele>194</ele>
        <time>2018-01-19T13:54:45Z</time>
      </trkpt>
      <trkpt lat="47.24029" lon="5.48057">
        <ele>193</ele>
        <time>2018-01-19T13:54:54Z</time>
      </trkpt>
      <trkpt lat="47.24031" lon="5.48052">
        <ele>194</ele>
        <time>2018-01-19T13:54:55Z</time>
      </trkpt>
      <trkpt lat="47.24042" lon="5.48027">
        <ele>195</ele>
        <time>2018-01-19T13:55:00Z</time>
      </trkpt>
      <trkpt lat="47.24052" lon="5.47998">
        <ele>195</ele>
        <time>2018-01-19T13:55:06Z</time>
      </trkpt>
      <trkpt lat="47.24059" lon="5.47976">
        <ele>197</ele>
        <time>2018-01-19T13:55:10Z</time>
      </trkpt>
      <trkpt lat="47.24071" lon="5.47942">
        <ele>197</ele>
        <time>2018-01-19T13:55:16Z</time>
      </trkpt>
      <trkpt lat="47.24086" lon="5.47907">
        <ele>197</ele>
        <time>2018-01-19T13:55:22Z</time>
      </trkpt>
      <trkpt lat="47.24101" lon="5.47874">
        <ele>191</ele>
        <time>2018-01-19T13:55:28Z</time>
      </trkpt>
      <trkpt lat="47.24106" lon="5.47862">
        <ele>193</ele>
        <time>2018-01-19T13:55:30Z</time>
      </trkpt>
      <trkpt lat="47.24116" lon="5.4783">
        <ele>195</ele>
        <time>2018-01-19T13:55:35Z</time>
      </trkpt>
      <trkpt lat="47.24127" lon="5.47786">
        <ele>198</ele>
        <time>2018-01-19T13:55:41Z</time>
      </trkpt>
      <trkpt lat="47.24143" lon="5.47744">
        <ele>199</ele>
        <time>2018-01-19T13:55:47Z</time>
      </trkpt>
      <trkpt lat="47.24149" lon="5.47723">
        <ele>198</ele>
        <time>2018-01-19T13:55:50Z</time>
      </trkpt>
      <trkpt lat="47.2416" lon="5.47688">
        <ele>194</ele>
        <time>2018-01-19T13:55:55Z</time>
      </trkpt>
      <trkpt lat="47.24177" lon="5.47634">
        <ele>194</ele>
        <time>2018-01-19T13:56:02Z</time>
      </trkpt>
      <trkpt lat="47.24184" lon="5.47615">
        <ele>194</ele>
        <time>2018-01-19T13:56:05Z</time>
      </trkpt>
      <trkpt lat="47.24204" lon="5.47572">
        <ele>193</ele>
        <time>2018-01-19T13:56:12Z</time>
      </trkpt>
      <trkpt lat="47.2421" lon="5.47554">
        <ele>194</ele>
        <time>2018-01-19T13:56:15Z</time>
      </trkpt>
      <trkpt lat="47.2422" lon="5.47524">
        <ele>194</ele>
        <time>2018-01-19T13:56:20Z</time>
      </trkpt>
      <trkpt lat="47.24231" lon="5.47494">
        <ele>191</ele>
        <time>2018-01-19T13:56:25Z</time>
      </trkpt>
      <trkpt lat="47.24239" lon="5.47465">
        <ele>188</ele>
        <time>2018-01-19T13:56:30Z</time>
      </trkpt>
      <trkpt lat="47.24248" lon="5.47439">
        <ele>185</ele>
        <time>2018-01-19T13:56:35Z</time>
      </trkpt>
      <trkpt lat="47.24256" lon="5.47414">
        <ele>176</ele>
        <time>2018-01-19T13:56:40Z</time>
      </trkpt>
      <trkpt lat="47.24265" lon="5.47373">
        <ele>176</ele>
        <time>2018-01-19T13:56:46Z</time>
      </trkpt>
      <trkpt lat="47.2428" lon="5.47316">
        <ele>180</ele>
        <time>2018-01-19T13:56:54Z</time>
      </trkpt>
      <trkpt lat="47.24283" lon="5.47304">
        <ele>177</ele>
        <time>2018-01-19T13:56:56Z</time>
      </trkpt>
      <trkpt lat="47.24291" lon="5.47277">
        <ele>178</ele>
        <time>2018-01-19T13:57:00Z</time>
      </trkpt>
      <trkpt lat="47.24308" lon="5.4721">
        <ele>181</ele>
        <time>2018-01-19T13:57:09Z</time>
      </trkpt>
      <trkpt lat="47.24313" lon="5.47195">
        <ele>183</ele>
        <time>2018-01-19T13:57:11Z</time>
      </trkpt>
      <trkpt lat="47.24319" lon="5.47166">
        <ele>181</ele>
        <time>2018-01-19T13:57:15Z</time>
      </trkpt>
      <trkpt lat="47.24334" lon="5.47094">
        <ele>186</ele>
        <time>2018-01-19T13:57:24Z</time>
      </trkpt>
      <trkpt lat="47.24336" lon="5.47086">
        <ele>186</ele>
        <time>2018-01-19T13:57:25Z</time>
      </trkpt>
      <trkpt lat="47.24348" lon="5.47051">
        <ele>185</ele>
        <time>2018-01-19T13:57:30Z</time>
      </trkpt>
      <trkpt lat="47.24368" lon="5.46982">
        <ele>186</ele>
        <time>2018-01-19T13:57:39Z</time>
      </trkpt>
      <trkpt lat="47.2438" lon="5.46945">
        <ele>185</ele>
        <time>2018-01-19T13:57:44Z</time>
      </trkpt>
      <trkpt lat="47.24388" lon="5.46908">
        <ele>190</ele>
        <time>2018-01-19T13:57:48Z</time>
      </trkpt>
      <trkpt lat="47.24397" lon="5.46881">
        <ele>192</ele>
        <time>2018-01-19T13:57:51Z</time>
      </trkpt>
      <trkpt lat="47.24433" lon="5.4683">
        <ele>194</ele>
        <time>2018-01-19T13:57:58Z</time>
      </trkpt>
      <trkpt lat="47.24453" lon="5.46805">
        <ele>193</ele>
        <time>2018-01-19T13:58:02Z</time>
      </trkpt>
      <trkpt lat="47.24467" lon="5.4679">
        <ele>192</ele>
        <time>2018-01-19T13:58:05Z</time>
      </trkpt>
      <trkpt lat="47.24497" lon="5.46771">
        <ele>194</ele>
        <time>2018-01-19T13:58:10Z</time>
      </trkpt>
      <trkpt lat="47.24531" lon="5.46758">
        <ele>196</ele>
        <time>2018-01-19T13:58:15Z</time>
      </trkpt>
      <trkpt lat="47.24578" lon="5.46733">
        <ele>197</ele>
        <time>2018-01-19T13:58:22Z</time>
      </trkpt>
      <trkpt lat="47.24596" lon="5.46722">
        <ele>197</ele>
        <time>2018-01-19T13:58:25Z</time>
      </trkpt>
      <trkpt lat="47.24624" lon="5.46701">
        <ele>196</ele>
        <time>2018-01-19T13:58:30Z</time>
      </trkpt>
      <trkpt lat="47.2465" lon="5.46678">
        <ele>194</ele>
        <time>2018-01-19T13:58:35Z</time>
      </trkpt>
      <trkpt lat="47.247" lon="5.46636">
        <ele>194</ele>
        <time>2018-01-19T13:58:44Z</time>
      </trkpt>
      <trkpt lat="47.24705" lon="5.46633">
        <ele>193</ele>
        <time>2018-01-19T13:58:45Z</time>
      </trkpt>
      <trkpt lat="47.24729" lon="5.46607">
        <ele>193</ele>
        <time>2018-01-19T13:58:50Z</time>
      </trkpt>
      <trkpt lat="47.24762" lon="5.46566">
        <ele>193</ele>
        <time>2018-01-19T13:58:57Z</time>
      </trkpt>
      <trkpt lat="47.24783" lon="5.46537">
        <ele>192</ele>
        <time>2018-01-19T13:59:02Z</time>
      </trkpt>
      <trkpt lat="47.24807" lon="5.46505">
        <ele>191</ele>
        <time>2018-01-19T13:59:07Z</time>
      </trkpt>
      <trkpt lat="47.24831" lon="5.46471">
        <ele>192</ele>
        <time>2018-01-19T13:59:12Z</time>
      </trkpt>
      <trkpt lat="47.24845" lon="5.46451">
        <ele>192</ele>
        <time>2018-01-19T13:59:15Z</time>
      </trkpt>
      <trkpt lat="47.24868" lon="5.46419">
        <ele>193</ele>
        <time>2018-01-19T13:59:20Z</time>
      </trkpt>
      <trkpt lat="47.24891" lon="5.46387">
        <ele>192</ele>
        <time>2018-01-19T13:59:25Z</time>
      </trkpt>
      <trkpt lat="47.24912" lon="5.46352">
        <ele>192</ele>
        <time>2018-01-19T13:59:30Z</time>
      </trkpt>
      <trkpt lat="47.24929" lon="5.46315">
        <ele>191</ele>
        <time>2018-01-19T13:59:35Z</time>
      </trkpt>
      <trkpt lat="47.24942" lon="5.4628">
        <ele>190</ele>
        <time>2018-01-19T13:59:40Z</time>
      </trkpt>
      <trkpt lat="47.24955" lon="5.46245">
        <ele>191</ele>
        <time>2018-01-19T13:59:45Z</time>
      </trkpt>
      <trkpt lat="47.24967" lon="5.46212">
        <ele>191</ele>
        <time>2018-01-19T13:59:50Z</time>
      </trkpt>
      <trkpt lat="47.24979" lon="5.46178">
        <ele>190</ele>
        <time>2018-01-19T13:59:55Z</time>
      </trkpt>
      <trkpt lat="47.24993" lon="5.46144">
        <ele>190</ele>
        <time>2018-01-19T14:00:00Z</time>
      </trkpt>
      <trkpt lat="47.25009" lon="5.46111">
        <ele>189</ele>
        <time>2018-01-19T14:00:05Z</time>
      </trkpt>
      <trkpt lat="47.25027" lon="5.46079">
        <ele>189</ele>
        <time>2018-01-19T14:00:10Z</time>
      </trkpt>
      <trkpt lat="47.25047" lon="5.4605">
        <ele>189</ele>
        <time>2018-01-19T14:00:15Z</time>
      </trkpt>
      <trkpt lat="47.25068" lon="5.46024">
        <ele>189</ele>
        <time>2018-01-19T14:00:20Z</time>
      </trkpt>
      <trkpt lat="47.25091" lon="5.46">
        <ele>190</ele>
        <time>2018-01-19T14:00:25Z</time>
      </trkpt>
      <trkpt lat="47.25116" lon="5.45979">
        <ele>190</ele>
        <time>2018-01-19T14:00:30Z</time>
      </trkpt>
      <trkpt lat="47.2514" lon="5.45962">
        <ele>189</ele>
        <time>2018-01-19T14:00:35Z</time>
      </trkpt>
      <trkpt lat="47.25164" lon="5.45945">
        <ele>190</ele>
        <time>2018-01-19T14:00:40Z</time>
      </trkpt>
      <trkpt lat="47.25188" lon="5.45928">
        <ele>189</ele>
        <time>2018-01-19T14:00:45Z</time>
      </trkpt>
      <trkpt lat="47.25209" lon="5.45909">
        <ele>189</ele>
        <time>2018-01-19T14:00:50Z</time>
      </trkpt>
      <trkpt lat="47.25226" lon="5.45885">
        <ele>189</ele>
        <time>2018-01-19T14:00:55Z</time>
      </trkpt>
      <trkpt lat="47.2524" lon="5.45856">
        <ele>189</ele>
        <time>2018-01-19T14:01:00Z</time>
      </trkpt>
      <trkpt lat="47.25256" lon="5.45824">
        <ele>189</ele>
        <time>2018-01-19T14:01:05Z</time>
      </trkpt>
      <trkpt lat="47.25274" lon="5.45795">
        <ele>189</ele>
        <time>2018-01-19T14:01:10Z</time>
      </trkpt>
      <trkpt lat="47.25293" lon="5.45771">
        <ele>189</ele>
        <time>2018-01-19T14:01:15Z</time>
      </trkpt>
      <trkpt lat="47.25314" lon="5.45748">
        <ele>189</ele>
        <time>2018-01-19T14:01:20Z</time>
      </trkpt>
      <trkpt lat="47.25336" lon="5.45726">
        <ele>189</ele>
        <time>2018-01-19T14:01:25Z</time>
      </trkpt>
      <trkpt lat="47.2536" lon="5.45708">
        <ele>189</ele>
        <time>2018-01-19T14:01:30Z</time>
      </trkpt>
      <trkpt lat="47.25376" lon="5.45686">
        <ele>190</ele>
        <time>2018-01-19T14:01:35Z</time>
      </trkpt>
      <trkpt lat="47.2538" lon="5.45664">
        <ele>190</ele>
        <time>2018-01-19T14:01:40Z</time>
      </trkpt>
      <trkpt lat="47.25383" lon="5.45638">
        <ele>190</ele>
        <time>2018-01-19T14:01:45Z</time>
      </trkpt>
      <trkpt lat="47.25391" lon="5.45608">
        <ele>188</ele>
        <time>2018-01-19T14:01:50Z</time>
      </trkpt>
      <trkpt lat="47.25404" lon="5.4558">
        <ele>190</ele>
        <time>2018-01-19T14:01:55Z</time>
      </trkpt>
      <trkpt lat="47.25418" lon="5.45553">
        <ele>191</ele>
        <time>2018-01-19T14:02:00Z</time>
      </trkpt>
      <trkpt lat="47.2543" lon="5.45529">
        <ele>193</ele>
        <time>2018-01-19T14:02:05Z</time>
      </trkpt>
      <trkpt lat="47.25443" lon="5.45507">
        <ele>195</ele>
        <time>2018-01-19T14:02:10Z</time>
      </trkpt>
      <trkpt lat="47.25453" lon="5.45488">
        <ele>197</ele>
        <time>2018-01-19T14:02:15Z</time>
      </trkpt>
      <trkpt lat="47.25462" lon="5.45472">
        <ele>198</ele>
        <time>2018-01-19T14:02:20Z</time>
      </trkpt>
      <trkpt lat="47.25472" lon="5.45454">
        <ele>198</ele>
        <time>2018-01-19T14:02:25Z</time>
      </trkpt>
      <trkpt lat="47.25481" lon="5.45436">
        <ele>199</ele>
        <time>2018-01-19T14:02:30Z</time>
      </trkpt>
      <trkpt lat="47.25493" lon="5.45414">
        <ele>200</ele>
        <time>2018-01-19T14:02:36Z</time>
      </trkpt>
      <trkpt lat="47.25502" lon="5.454">
        <ele>200</ele>
        <time>2018-01-19T14:02:40Z</time>
      </trkpt>
      <trkpt lat="47.2553" lon="5.45387">
        <ele>199</ele>
        <time>2018-01-19T14:02:48Z</time>
      </trkpt>
      <trkpt lat="47.25542" lon="5.45386">
        <ele>200</ele>
        <time>2018-01-19T14:02:51Z</time>
      </trkpt>
      <trkpt lat="47.25557" lon="5.45385">
        <ele>201</ele>
        <time>2018-01-19T14:02:55Z</time>
      </trkpt>
      <trkpt lat="47.25578" lon="5.45383">
        <ele>202</ele>
        <time>2018-01-19T14:03:00Z</time>
      </trkpt>
      <trkpt lat="47.25598" lon="5.45379">
        <ele>202</ele>
        <time>2018-01-19T14:03:05Z</time>
      </trkpt>
      <trkpt lat="47.25618" lon="5.45375">
        <ele>203</ele>
        <time>2018-01-19T14:03:10Z</time>
      </trkpt>
      <trkpt lat="47.25634" lon="5.45363">
        <ele>202</ele>
        <time>2018-01-19T14:03:15Z</time>
      </trkpt>
      <trkpt lat="47.25653" lon="5.45348">
        <ele>202</ele>
        <time>2018-01-19T14:03:20Z</time>
      </trkpt>
      <trkpt lat="47.25666" lon="5.45337">
        <ele>200</ele>
        <time>2018-01-19T14:03:25Z</time>
      </trkpt>
      <trkpt lat="47.25687" lon="5.4532">
        <ele>200</ele>
        <time>2018-01-19T14:03:33Z</time>
      </trkpt>
      <trkpt lat="47.25684" lon="5.45311">
        <ele>198</ele>
        <time>2018-01-19T14:03:35Z</time>
      </trkpt>
      <trkpt lat="47.25674" lon="5.45281">
        <ele>195</ele>
        <time>2018-01-19T14:03:40Z</time>
      </trkpt>
      <trkpt lat="47.25668" lon="5.45243">
        <ele>192</ele>
        <time>2018-01-19T14:03:45Z</time>
      </trkpt>
      <trkpt lat="47.25664" lon="5.45173">
        <ele>188</ele>
        <time>2018-01-19T14:03:53Z</time>
      </trkpt>
      <trkpt lat="47.25665" lon="5.45134">
        <ele>188</ele>
        <time>2018-01-19T14:03:57Z</time>
      </trkpt>
      <trkpt lat="47.25665" lon="5.45102">
        <ele>189</ele>
        <time>2018-01-19T14:04:00Z</time>
      </trkpt>
      <trkpt lat="47.25665" lon="5.45052">
        <ele>187</ele>
        <time>2018-01-19T14:04:05Z</time>
      </trkpt>
      <trkpt lat="47.25655" lon="5.45008">
        <ele>185</ele>
        <time>2018-01-19T14:04:10Z</time>
      </trkpt>
      <trkpt lat="47.25641" lon="5.44957">
        <ele>186</ele>
        <time>2018-01-19T14:04:16Z</time>
      </trkpt>
      <trkpt lat="47.25627" lon="5.44914">
        <ele>184</ele>
        <time>2018-01-19T14:04:22Z</time>
      </trkpt>
      <trkpt lat="47.2561" lon="5.44905">
        <ele>187</ele>
        <time>2018-01-19T14:04:25Z</time>
      </trkpt>
      <trkpt lat="47.25585" lon="5.449">
        <ele>188</ele>
        <time>2018-01-19T14:04:30Z</time>
      </trkpt>
      <trkpt lat="47.25551" lon="5.44883">
        <ele>186</ele>
        <time>2018-01-19T14:04:37Z</time>
      </trkpt>
      <trkpt lat="47.25536" lon="5.44874">
        <ele>189</ele>
        <time>2018-01-19T14:04:40Z</time>
      </trkpt>
      <trkpt lat="47.25511" lon="5.44858">
        <ele>186</ele>
        <time>2018-01-19T14:04:45Z</time>
      </trkpt>
      <trkpt lat="47.25487" lon="5.44846">
        <ele>185</ele>
        <time>2018-01-19T14:04:50Z</time>
      </trkpt>
      <trkpt lat="47.25463" lon="5.44833">
        <ele>186</ele>
        <time>2018-01-19T14:04:55Z</time>
      </trkpt>
      <trkpt lat="47.25439" lon="5.44821">
        <ele>186</ele>
        <time>2018-01-19T14:05:00Z</time>
      </trkpt>
      <trkpt lat="47.25417" lon="5.44809">
        <ele>186</ele>
        <time>2018-01-19T14:05:05Z</time>
      </trkpt>
      <trkpt lat="47.25396" lon="5.44798">
        <ele>186</ele>
        <time>2018-01-19T14:05:10Z</time>
      </trkpt>
      <trkpt lat="47.25374" lon="5.44788">
        <ele>185</ele>
        <time>2018-01-19T14:05:15Z</time>
      </trkpt>
      <trkpt lat="47.2535" lon="5.4478">
        <ele>185</ele>
        <time>2018-01-19T14:05:20Z</time>
      </trkpt>
      <trkpt lat="47.25326" lon="5.44774">
        <ele>186</ele>
        <time>2018-01-19T14:05:25Z</time>
      </trkpt>
      <trkpt lat="47.25299" lon="5.4477">
        <ele>188</ele>
        <time>2018-01-19T14:05:30Z</time>
      </trkpt>
      <trkpt lat="47.25272" lon="5.44766">
        <ele>186</ele>
        <time>2018-01-19T14:05:35Z</time>
      </trkpt>
      <trkpt lat="47.25234" lon="5.4476">
        <ele>187</ele>
        <time>2018-01-19T14:05:42Z</time>
      </trkpt>
      <trkpt lat="47.2522" lon="5.44763">
        <ele>184</ele>
        <time>2018-01-19T14:05:45Z</time>
      </trkpt>
      <trkpt lat="47.25193" lon="5.44766">
        <ele>182</ele>
        <time>2018-01-19T14:05:50Z</time>
      </trkpt>
      <trkpt lat="47.25165" lon="5.44761">
        <ele>181</ele>
        <time>2018-01-19T14:05:55Z</time>
      </trkpt>
      <trkpt lat="47.25119" lon="5.44755">
        <ele>182</ele>
        <time>2018-01-19T14:06:04Z</time>
      </trkpt>
      <trkpt lat="47.25106" lon="5.44756">
        <ele>183</ele>
        <time>2018-01-19T14:06:07Z</time>
      </trkpt>
      <trkpt lat="47.25091" lon="5.4476">
        <ele>182</ele>
        <time>2018-01-19T14:06:10Z</time>
      </trkpt>
      <trkpt lat="47.25068" lon="5.44771">
        <ele>183</ele>
        <time>2018-01-19T14:06:15Z</time>
      </trkpt>
      <trkpt lat="47.25044" lon="5.4478">
        <ele>183</ele>
        <time>2018-01-19T14:06:20Z</time>
      </trkpt>
      <trkpt lat="47.25018" lon="5.44788">
        <ele>182</ele>
        <time>2018-01-19T14:06:25Z</time>
      </trkpt>
      <trkpt lat="47.24992" lon="5.44788">
        <ele>184</ele>
        <time>2018-01-19T14:06:30Z</time>
      </trkpt>
      <trkpt lat="47.24972" lon="5.44779">
        <ele>185</ele>
        <time>2018-01-19T14:06:35Z</time>
      </trkpt>
      <trkpt lat="47.2495" lon="5.4477">
        <ele>187</ele>
        <time>2018-01-19T14:06:40Z</time>
      </trkpt>
      <trkpt lat="47.2493" lon="5.44763">
        <ele>186</ele>
        <time>2018-01-19T14:06:45Z</time>
      </trkpt>
      <trkpt lat="47.2491" lon="5.44755">
        <ele>187</ele>
        <time>2018-01-19T14:06:50Z</time>
      </trkpt>
      <trkpt lat="47.24889" lon="5.44745">
        <ele>188</ele>
        <time>2018-01-19T14:06:55Z</time>
      </trkpt>
      <trkpt lat="47.24867" lon="5.44736">
        <ele>188</ele>
        <time>2018-01-19T14:07:00Z</time>
      </trkpt>
      <trkpt lat="47.24843" lon="5.44727">
        <ele>187</ele>
        <time>2018-01-19T14:07:05Z</time>
      </trkpt>
      <trkpt lat="47.24821" lon="5.44718">
        <ele>187</ele>
        <time>2018-01-19T14:07:10Z</time>
      </trkpt>
      <trkpt lat="47.248" lon="5.4471">
        <ele>186</ele>
        <time>2018-01-19T14:07:15Z</time>
      </trkpt>
      <trkpt lat="47.24777" lon="5.44702">
        <ele>187</ele>
        <time>2018-01-19T14:07:20Z</time>
      </trkpt>
      <trkpt lat="47.24754" lon="5.44696">
        <ele>186</ele>
        <time>2018-01-19T14:07:25Z</time>
      </trkpt>
      <trkpt lat="47.24732" lon="5.44689">
        <ele>187</ele>
        <time>2018-01-19T14:07:30Z</time>
      </trkpt>
      <trkpt lat="47.24712" lon="5.44684">
        <ele>186</ele>
        <time>2018-01-19T14:07:35Z</time>
      </trkpt>
      <trkpt lat="47.24691" lon="5.44681">
        <ele>185</ele>
        <time>2018-01-19T14:07:40Z</time>
      </trkpt>
      <trkpt lat="47.24668" lon="5.44676">
        <ele>184</ele>
        <time>2018-01-19T14:07:45Z</time>
      </trkpt>
      <trkpt lat="47.24645" lon="5.44674">
        <ele>184</ele>
        <time>2018-01-19T14:07:50Z</time>
      </trkpt>
      <trkpt lat="47.24621" lon="5.44671">
        <ele>184</ele>
        <time>2018-01-19T14:07:55Z</time>
      </trkpt>
      <trkpt lat="47.24597" lon="5.44667">
        <ele>184</ele>
        <time>2018-01-19T14:08:00Z</time>
      </trkpt>
      <trkpt lat="47.24573" lon="5.44666">
        <ele>184</ele>
        <time>2018-01-19T14:08:05Z</time>
      </trkpt>
      <trkpt lat="47.24549" lon="5.44661">
        <ele>184</ele>
        <time>2018-01-19T14:08:10Z</time>
      </trkpt>
      <trkpt lat="47.24525" lon="5.44658">
        <ele>183</ele>
        <time>2018-01-19T14:08:15Z</time>
      </trkpt>
      <trkpt lat="47.24497" lon="5.44656">
        <ele>182</ele>
        <time>2018-01-19T14:08:20Z</time>
      </trkpt>
      <trkpt lat="47.24464" lon="5.44657">
        <ele>181</ele>
        <time>2018-01-19T14:08:26Z</time>
      </trkpt>
      <trkpt lat="47.24443" lon="5.44657">
        <ele>182</ele>
        <time>2018-01-19T14:08:30Z</time>
      </trkpt>
      <trkpt lat="47.24401" lon="5.44652">
        <ele>184</ele>
        <time>2018-01-19T14:08:38Z</time>
      </trkpt>
      <trkpt lat="47.2439" lon="5.44651">
        <ele>184</ele>
        <time>2018-01-19T14:08:40Z</time>
      </trkpt>
      <trkpt lat="47.24365" lon="5.44645">
        <ele>184</ele>
        <time>2018-01-19T14:08:45Z</time>
      </trkpt>
      <trkpt lat="47.24341" lon="5.44641">
        <ele>183</ele>
        <time>2018-01-19T14:08:50Z</time>
      </trkpt>
      <trkpt lat="47.24316" lon="5.44637">
        <ele>183</ele>
        <time>2018-01-19T14:08:55Z</time>
      </trkpt>
      <trkpt lat="47.24294" lon="5.44632">
        <ele>180</ele>
        <time>2018-01-19T14:09:00Z</time>
      </trkpt>
      <trkpt lat="47.24272" lon="5.44626">
        <ele>178</ele>
        <time>2018-01-19T14:09:05Z</time>
      </trkpt>
      <trkpt lat="47.24248" lon="5.44622">
        <ele>179</ele>
        <time>2018-01-19T14:09:10Z</time>
      </trkpt>
      <trkpt lat="47.24224" lon="5.44616">
        <ele>181</ele>
        <time>2018-01-19T14:09:15Z</time>
      </trkpt>
      <trkpt lat="47.242" lon="5.4461">
        <ele>183</ele>
        <time>2018-01-19T14:09:20Z</time>
      </trkpt>
      <trkpt lat="47.24177" lon="5.44602">
        <ele>185</ele>
        <time>2018-01-19T14:09:25Z</time>
      </trkpt>
      <trkpt lat="47.24156" lon="5.44595">
        <ele>187</ele>
        <time>2018-01-19T14:09:30Z</time>
      </trkpt>
      <trkpt lat="47.24141" lon="5.4459">
        <ele>188</ele>
        <time>2018-01-19T14:09:35Z</time>
      </trkpt>
      <trkpt lat="47.24125" lon="5.44582">
        <ele>188</ele>
        <time>2018-01-19T14:09:40Z</time>
      </trkpt>
      <trkpt lat="47.24107" lon="5.44568">
        <ele>187</ele>
        <time>2018-01-19T14:09:45Z</time>
      </trkpt>
      <trkpt lat="47.24088" lon="5.44555">
        <ele>187</ele>
        <time>2018-01-19T14:09:50Z</time>
      </trkpt>
      <trkpt lat="47.24068" lon="5.44544">
        <ele>187</ele>
        <time>2018-01-19T14:09:55Z</time>
      </trkpt>
      <trkpt lat="47.24048" lon="5.44533">
        <ele>187</ele>
        <time>2018-01-19T14:10:00Z</time>
      </trkpt>
      <trkpt lat="47.24027" lon="5.44522">
        <ele>186</ele>
        <time>2018-01-19T14:10:05Z</time>
      </trkpt>
      <trkpt lat="47.24006" lon="5.44506">
        <ele>187</ele>
        <time>2018-01-19T14:10:10Z</time>
      </trkpt>
      <trkpt lat="47.23989" lon="5.44485">
        <ele>186</ele>
        <time>2018-01-19T14:10:15Z</time>
      </trkpt>
      <trkpt lat="47.23975" lon="5.44461">
        <ele>187</ele>
        <time>2018-01-19T14:10:20Z</time>
      </trkpt>
      <trkpt lat="47.2396" lon="5.44436">
        <ele>187</ele>
        <time>2018-01-19T14:10:25Z</time>
      </trkpt>
      <trkpt lat="47.23945" lon="5.4441">
        <ele>186</ele>
        <time>2018-01-19T14:10:30Z</time>
      </trkpt>
      <trkpt lat="47.23929" lon="5.44387">
        <ele>187</ele>
        <time>2018-01-19T14:10:35Z</time>
      </trkpt>
      <trkpt lat="47.23913" lon="5.44366">
        <ele>188</ele>
        <time>2018-01-19T14:10:40Z</time>
      </trkpt>
      <trkpt lat="47.23895" lon="5.44344">
        <ele>189</ele>
        <time>2018-01-19T14:10:45Z</time>
      </trkpt>
      <trkpt lat="47.23877" lon="5.44325">
        <ele>189</ele>
        <time>2018-01-19T14:10:50Z</time>
      </trkpt>
      <trkpt lat="47.23857" lon="5.44308">
        <ele>189</ele>
        <time>2018-01-19T14:10:55Z</time>
      </trkpt>
      <trkpt lat="47.23838" lon="5.44293">
        <ele>190</ele>
        <time>2018-01-19T14:11:00Z</time>
      </trkpt>
      <trkpt lat="47.23817" lon="5.44278">
        <ele>190</ele>
        <time>2018-01-19T14:11:05Z</time>
      </trkpt>
      <trkpt lat="47.23798" lon="5.44262">
        <ele>190</ele>
        <time>2018-01-19T14:11:10Z</time>
      </trkpt>
      <trkpt lat="47.23779" lon="5.44245">
        <ele>190</ele>
        <time>2018-01-19T14:11:15Z</time>
      </trkpt>
      <trkpt lat="47.23761" lon="5.44225">
        <ele>190</ele>
        <time>2018-01-19T14:11:20Z</time>
      </trkpt>
      <trkpt lat="47.23745" lon="5.44208">
        <ele>189</ele>
        <time>2018-01-19T14:11:25Z</time>
      </trkpt>
      <trkpt lat="47.23731" lon="5.442">
        <ele>189</ele>
        <time>2018-01-19T14:11:30Z</time>
      </trkpt>
      <trkpt lat="47.23715" lon="5.44198">
        <ele>187</ele>
        <time>2018-01-19T14:11:35Z</time>
      </trkpt>
      <trkpt lat="47.23698" lon="5.442">
        <ele>185</ele>
        <time>2018-01-19T14:11:40Z</time>
      </trkpt>
      <trkpt lat="47.23683" lon="5.44203">
        <ele>185</ele>
        <time>2018-01-19T14:11:45Z</time>
      </trkpt>
      <trkpt lat="47.23674" lon="5.44192">
        <ele>186</ele>
        <time>2018-01-19T14:11:50Z</time>
      </trkpt>
      <trkpt lat="47.23671" lon="5.44172">
        <ele>186</ele>
        <time>2018-01-19T14:11:56Z</time>
      </trkpt>
      <trkpt lat="47.23661" lon="5.44161">
        <ele>187</ele>
        <time>2018-01-19T14:12:00Z</time>
      </trkpt>
      <trkpt lat="47.23646" lon="5.44148">
        <ele>187</ele>
        <time>2018-01-19T14:12:06Z</time>
      </trkpt>
      <trkpt lat="47.23634" lon="5.44134">
        <ele>187</ele>
        <time>2018-01-19T14:12:09Z</time>
      </trkpt>
      <trkpt lat="47.23618" lon="5.44121">
        <ele>186</ele>
        <time>2018-01-19T14:12:14Z</time>
      </trkpt>
      <trkpt lat="47.23604" lon="5.44105">
        <ele>188</ele>
        <time>2018-01-19T14:12:19Z</time>
      </trkpt>
      <trkpt lat="47.23584" lon="5.44085">
        <ele>189</ele>
        <time>2018-01-19T14:12:26Z</time>
      </trkpt>
      <trkpt lat="47.23575" lon="5.44074">
        <ele>188</ele>
        <time>2018-01-19T14:12:29Z</time>
      </trkpt>
      <trkpt lat="47.23558" lon="5.44058">
        <ele>187</ele>
        <time>2018-01-19T14:12:34Z</time>
      </trkpt>
      <trkpt lat="47.23527" lon="5.44041">
        <ele>187</ele>
        <time>2018-01-19T14:12:43Z</time>
      </trkpt>
      <trkpt lat="47.23524" lon="5.44039">
        <ele>188</ele>
        <time>2018-01-19T14:12:44Z</time>
      </trkpt>
      <trkpt lat="47.23503" lon="5.44034">
        <ele>190</ele>
        <time>2018-01-19T14:12:50Z</time>
      </trkpt>
      <trkpt lat="47.23488" lon="5.44028">
        <ele>190</ele>
        <time>2018-01-19T14:12:54Z</time>
      </trkpt>
      <trkpt lat="47.23462" lon="5.44013">
        <ele>188</ele>
        <time>2018-01-19T14:13:01Z</time>
      </trkpt>
      <trkpt lat="47.23451" lon="5.44007">
        <ele>190</ele>
        <time>2018-01-19T14:13:04Z</time>
      </trkpt>
      <trkpt lat="47.23439" lon="5.44">
        <ele>189</ele>
        <time>2018-01-19T14:13:08Z</time>
      </trkpt>
      <trkpt lat="47.23423" lon="5.43996">
        <ele>189</ele>
        <time>2018-01-19T14:13:13Z</time>
      </trkpt>
      <trkpt lat="47.23408" lon="5.43988">
        <ele>190</ele>
        <time>2018-01-19T14:13:18Z</time>
      </trkpt>
      <trkpt lat="47.23393" lon="5.43981">
        <ele>190</ele>
        <time>2018-01-19T14:13:23Z</time>
      </trkpt>
      <trkpt lat="47.23369" lon="5.4397">
        <ele>192</ele>
        <time>2018-01-19T14:13:31Z</time>
      </trkpt>
      <trkpt lat="47.23363" lon="5.43967">
        <ele>192</ele>
        <time>2018-01-19T14:13:33Z</time>
      </trkpt>
      <trkpt lat="47.23347" lon="5.43962">
        <ele>192</ele>
        <time>2018-01-19T14:13:38Z</time>
      </trkpt>
      <trkpt lat="47.23334" lon="5.43973">
        <ele>190</ele>
        <time>2018-01-19T14:13:43Z</time>
      </trkpt>
      <trkpt lat="47.23326" lon="5.43991">
        <ele>190</ele>
        <time>2018-01-19T14:13:48Z</time>
      </trkpt>
      <trkpt lat="47.23317" lon="5.4401">
        <ele>191</ele>
        <time>2018-01-19T14:13:53Z</time>
      </trkpt>
      <trkpt lat="47.23307" lon="5.4403">
        <ele>191</ele>
        <time>2018-01-19T14:13:58Z</time>
      </trkpt>
      <trkpt lat="47.23296" lon="5.44049">
        <ele>191</ele>
        <time>2018-01-19T14:14:03Z</time>
      </trkpt>
      <trkpt lat="47.23288" lon="5.44067">
        <ele>191</ele>
        <time>2018-01-19T14:14:08Z</time>
      </trkpt>
      <trkpt lat="47.23282" lon="5.44088">
        <ele>193</ele>
        <time>2018-01-19T14:14:14Z</time>
      </trkpt>
      <trkpt lat="47.23288" lon="5.44102">
        <ele>197</ele>
        <time>2018-01-19T14:14:18Z</time>
      </trkpt>
      <trkpt lat="47.23299" lon="5.44114">
        <ele>194</ele>
        <time>2018-01-19T14:14:23Z</time>
      </trkpt>
      <trkpt lat="47.23298" lon="5.44138">
        <ele>195</ele>
        <time>2018-01-19T14:14:28Z</time>
      </trkpt>
      <trkpt lat="47.2329" lon="5.44156">
        <ele>193</ele>
        <time>2018-01-19T14:14:33Z</time>
      </trkpt>
      <trkpt lat="47.23279" lon="5.44176">
        <ele>195</ele>
        <time>2018-01-19T14:14:38Z</time>
      </trkpt>
      <trkpt lat="47.2327" lon="5.44195">
        <ele>195</ele>
        <time>2018-01-19T14:14:43Z</time>
      </trkpt>
      <trkpt lat="47.2326" lon="5.44217">
        <ele>193</ele>
        <time>2018-01-19T14:14:49Z</time>
      </trkpt>
      <trkpt lat="47.2325" lon="5.44237">
        <ele>197</ele>
        <time>2018-01-19T14:14:55Z</time>
      </trkpt>
      <trkpt lat="47.2324" lon="5.44258">
        <ele>198</ele>
        <time>2018-01-19T14:15:01Z</time>
      </trkpt>
      <trkpt lat="47.23237" lon="5.44265">
        <ele>198</ele>
        <time>2018-01-19T14:15:03Z</time>
      </trkpt>
      <trkpt lat="47.23227" lon="5.44285">
        <ele>196</ele>
        <time>2018-01-19T14:15:08Z</time>
      </trkpt>
      <trkpt lat="47.23218" lon="5.44306">
        <ele>198</ele>
        <time>2018-01-19T14:15:13Z</time>
      </trkpt>
      <trkpt lat="47.2321" lon="5.44325">
        <ele>198</ele>
        <time>2018-01-19T14:15:18Z</time>
      </trkpt>
      <trkpt lat="47.23214" lon="5.44346">
        <ele>199</ele>
        <time>2018-01-19T14:15:23Z</time>
      </trkpt>
      <trkpt lat="47.23229" lon="5.44366">
        <ele>198</ele>
        <time>2018-01-19T14:15:28Z</time>
      </trkpt>
      <trkpt lat="47.23242" lon="5.44385">
        <ele>198</ele>
        <time>2018-01-19T14:15:33Z</time>
      </trkpt>
      <trkpt lat="47.23237" lon="5.44405">
        <ele>198</ele>
        <time>2018-01-19T14:15:38Z</time>
      </trkpt>
      <trkpt lat="47.23226" lon="5.4443">
        <ele>198</ele>
        <time>2018-01-19T14:15:43Z</time>
      </trkpt>
      <trkpt lat="47.23217" lon="5.44452">
        <ele>197</ele>
        <time>2018-01-19T14:15:48Z</time>
      </trkpt>
      <trkpt lat="47.23209" lon="5.44474">
        <ele>197</ele>
        <time>2018-01-19T14:15:53Z</time>
      </trkpt>
      <trkpt lat="47.232" lon="5.44498">
        <ele>198</ele>
        <time>2018-01-19T14:15:58Z</time>
      </trkpt>
      <trkpt lat="47.23191" lon="5.4452">
        <ele>199</ele>
        <time>2018-01-19T14:16:03Z</time>
      </trkpt>
      <trkpt lat="47.23182" lon="5.44542">
        <ele>200</ele>
        <time>2018-01-19T14:16:08Z</time>
      </trkpt>
      <trkpt lat="47.23172" lon="5.44565">
        <ele>201</ele>
        <time>2018-01-19T14:16:13Z</time>
      </trkpt>
      <trkpt lat="47.23155" lon="5.44615">
        <ele>200</ele>
        <time>2018-01-19T14:16:22Z</time>
      </trkpt>
      <trkpt lat="47.23153" lon="5.44619">
        <ele>199</ele>
        <time>2018-01-19T14:16:23Z</time>
      </trkpt>
      <trkpt lat="47.23145" lon="5.4464">
        <ele>199</ele>
        <time>2018-01-19T14:16:28Z</time>
      </trkpt>
      <trkpt lat="47.23132" lon="5.44664">
        <ele>198</ele>
        <time>2018-01-19T14:16:35Z</time>
      </trkpt>
      <trkpt lat="47.23122" lon="5.44663">
        <ele>196</ele>
        <time>2018-01-19T14:16:40Z</time>
      </trkpt>
      <trkpt lat="47.23122" lon="5.44663">
        <ele>197</ele>
        <time>2018-01-19T14:16:43Z</time>
      </trkpt>
      <trkpt lat="47.23121" lon="5.44664">
        <ele>196</ele>
        <time>2018-01-19T14:16:46Z</time>
      </trkpt>
      <trkpt lat="47.23121" lon="5.44665">
        <ele>194</ele>
        <time>2018-01-19T14:16:49Z</time>
      </trkpt>
      <trkpt lat="47.23121" lon="5.44666">
        <ele>194</ele>
        <time>2018-01-19T14:16:52Z</time>
      </trkpt>
      <trkpt lat="47.23122" lon="5.44667">
        <ele>192</ele>
        <time>2018-01-19T14:16:57Z</time>
      </trkpt>
      <trkpt lat="47.23122" lon="5.44667">
        <ele>192</ele>
        <time>2018-01-19T14:16:59Z</time>
      </trkpt>
      <trkpt lat="47.23122" lon="5.44668">
        <ele>192</ele>
        <time>2018-01-19T14:17:01Z</time>
      </trkpt>
      <trkpt lat="47.2312" lon="5.44668">
        <ele>193</ele>
        <time>2018-01-19T14:17:04Z</time>
      </trkpt>
      <trkpt lat="47.23119" lon="5.44667">
        <ele>193</ele>
        <time>2018-01-19T14:17:09Z</time>
      </trkpt>
      <trkpt lat="47.23118" lon="5.44668">
        <ele>193</ele>
        <time>2018-01-19T14:17:12Z</time>
      </trkpt>
      <trkpt lat="47.23118" lon="5.44669">
        <ele>193</ele>
        <time>2018-01-19T14:17:15Z</time>
      </trkpt>
      <trkpt lat="47.23118" lon="5.44669">
        <ele>194</ele>
        <time>2018-01-19T14:17:18Z</time>
      </trkpt>
      <trkpt lat="47.23118" lon="5.44669">
        <ele>194</ele>
        <time>2018-01-19T14:17:21Z</time>
      </trkpt>
      <trkpt lat="47.23118" lon="5.44669">
        <ele>194</ele>
        <time>2018-01-19T14:17:24Z</time>
      </trkpt>
      <trkpt lat="47.23118" lon="5.44669">
        <ele>194</ele>
        <time>2018-01-19T14:17:27Z</time>
      </trkpt>
      <trkpt lat="47.23118" lon="5.44669">
        <ele>194</ele>
        <time>2018-01-19T14:17:31Z</time>
      </trkpt>
      <trkpt lat="47.23118" lon="5.44669">
        <ele>194</ele>
        <time>2018-01-19T14:17:33Z</time>
      </trkpt>
      <trkpt lat="47.23118" lon="5.44669">
        <ele>193</ele>
        <time>2018-01-19T14:17:36Z</time>
      </trkpt>
      <trkpt lat="47.23118" lon="5.44669">
        <ele>193</ele>
        <time>2018-01-19T14:17:39Z</time>
      </trkpt>
    </trkseg>
  </trk>
</gpx>